<?xml version="1.0" encoding="UTF-8" standalone="no" ?>
<gpx xmlns="http://www.topografix.com/GPX/1/1" xmlns:xsi="http://www.w3.org/2001/XMLSchema-instance" xsi:schemaLocation="http://www.topografix.com/GPX/1/1 http://www.topografix.com/GPX/1/1/gpx.xsd" version="1.1" creator="VisuGPX - https://www.visugpx.com">
  <metadata>
    <name>Les Montagnès jeudi 16 janv. 2020</name>
    <desc><![CDATA[
]]></desc>
  </metadata>
  <trk>
    <name><![CDATA[Les Montagnès jeudi 16 janv. 2020]]></name>
    <trkseg>
      <trkpt lat="43.46214" lon="2.34649">
        <ele>689.09399700724</ele>
        <time>2020-01-16T13:08:12Z</time>
      </trkpt>
      <trkpt lat="43.46219" lon="2.34653">
        <ele>692.26882652007</ele>
        <time>2020-01-16T13:08:25Z</time>
      </trkpt>
      <trkpt lat="43.46228" lon="2.34655">
        <ele>698.71958323661</ele>
        <time>2020-01-16T13:08:56Z</time>
      </trkpt>
      <trkpt lat="43.46222" lon="2.34648">
        <ele>698.7286237767</ele>
        <time>2020-01-16T13:10:27Z</time>
      </trkpt>
      <trkpt lat="43.46213" lon="2.34646">
        <ele>697.58130228613</ele>
        <time>2020-01-16T13:10:33Z</time>
      </trkpt>
      <trkpt lat="43.4622" lon="2.34639">
        <ele>692.60262432601</ele>
        <time>2020-01-16T13:11:06Z</time>
      </trkpt>
      <trkpt lat="43.46229" lon="2.34637">
        <ele>690.70409330912</ele>
        <time>2020-01-16T13:11:18Z</time>
      </trkpt>
      <trkpt lat="43.46237" lon="2.34633">
        <ele>691.93331407662</ele>
        <time>2020-01-16T13:11:33Z</time>
      </trkpt>
      <trkpt lat="43.46242" lon="2.34623">
        <ele>691.6362989461</ele>
        <time>2020-01-16T13:11:39Z</time>
      </trkpt>
      <trkpt lat="43.46244" lon="2.34612">
        <ele>691.04132473003</ele>
        <time>2020-01-16T13:11:47Z</time>
      </trkpt>
      <trkpt lat="43.46237" lon="2.34606">
        <ele>688.93327448424</ele>
        <time>2020-01-16T13:11:59Z</time>
      </trkpt>
      <trkpt lat="43.4623" lon="2.34599">
        <ele>688.20822546724</ele>
        <time>2020-01-16T13:12:09Z</time>
      </trkpt>
      <trkpt lat="43.46222" lon="2.34595">
        <ele>689.41132015828</ele>
        <time>2020-01-16T13:12:16Z</time>
      </trkpt>
      <trkpt lat="43.46215" lon="2.34588">
        <ele>689.82717669103</ele>
        <time>2020-01-16T13:12:24Z</time>
      </trkpt>
      <trkpt lat="43.46207" lon="2.34588">
        <ele>691.78388625197</ele>
        <time>2020-01-16T13:12:30Z</time>
      </trkpt>
      <trkpt lat="43.46199" lon="2.34584">
        <ele>692.7157243602</ele>
        <time>2020-01-16T13:12:38Z</time>
      </trkpt>
      <trkpt lat="43.46192" lon="2.34577">
        <ele>692.62437141221</ele>
        <time>2020-01-16T13:12:45Z</time>
      </trkpt>
      <trkpt lat="43.46186" lon="2.34568">
        <ele>690.33211208973</ele>
        <time>2020-01-16T13:12:54Z</time>
      </trkpt>
      <trkpt lat="43.46179" lon="2.34564">
        <ele>688.44747197162</ele>
        <time>2020-01-16T13:13:01Z</time>
      </trkpt>
      <trkpt lat="43.4617" lon="2.34561">
        <ele>688.00368068274</ele>
        <time>2020-01-16T13:13:08Z</time>
      </trkpt>
      <trkpt lat="43.46162" lon="2.34559">
        <ele>687.53392330743</ele>
        <time>2020-01-16T13:13:16Z</time>
      </trkpt>
      <trkpt lat="43.46153" lon="2.34557">
        <ele>688.89144395664</ele>
        <time>2020-01-16T13:13:22Z</time>
      </trkpt>
      <trkpt lat="43.46145" lon="2.34553">
        <ele>691.08806588873</ele>
        <time>2020-01-16T13:13:29Z</time>
      </trkpt>
      <trkpt lat="43.46138" lon="2.34548">
        <ele>691.67383469548</ele>
        <time>2020-01-16T13:13:36Z</time>
      </trkpt>
      <trkpt lat="43.46131" lon="2.34542">
        <ele>690.40880907886</ele>
        <time>2020-01-16T13:13:44Z</time>
      </trkpt>
      <trkpt lat="43.46123" lon="2.34537">
        <ele>689.18804171495</ele>
        <time>2020-01-16T13:13:51Z</time>
      </trkpt>
      <trkpt lat="43.46116" lon="2.34534">
        <ele>689.05334032793</ele>
        <time>2020-01-16T13:13:59Z</time>
      </trkpt>
      <trkpt lat="43.46108" lon="2.34529">
        <ele>687.17354902439</ele>
        <time>2020-01-16T13:14:09Z</time>
      </trkpt>
      <trkpt lat="43.461" lon="2.34526">
        <ele>684.3321938701</ele>
        <time>2020-01-16T13:14:14Z</time>
      </trkpt>
      <trkpt lat="43.46092" lon="2.34521">
        <ele>683.19094719179</ele>
        <time>2020-01-16T13:14:20Z</time>
      </trkpt>
      <trkpt lat="43.46084" lon="2.34517">
        <ele>681.24142786488</ele>
        <time>2020-01-16T13:14:30Z</time>
      </trkpt>
      <trkpt lat="43.46076" lon="2.34515">
        <ele>679.67324346397</ele>
        <time>2020-01-16T13:14:36Z</time>
      </trkpt>
      <trkpt lat="43.46069" lon="2.34508">
        <ele>676.81002925802</ele>
        <time>2020-01-16T13:14:47Z</time>
      </trkpt>
      <trkpt lat="43.4606" lon="2.34505">
        <ele>676.0088346824</ele>
        <time>2020-01-16T13:14:54Z</time>
      </trkpt>
      <trkpt lat="43.46052" lon="2.34501">
        <ele>675.01974084694</ele>
        <time>2020-01-16T13:15:04Z</time>
      </trkpt>
      <trkpt lat="43.46045" lon="2.34495">
        <ele>675.08388135582</ele>
        <time>2020-01-16T13:15:12Z</time>
      </trkpt>
      <trkpt lat="43.46037" lon="2.34492">
        <ele>675.1132351486</ele>
        <time>2020-01-16T13:15:24Z</time>
      </trkpt>
      <trkpt lat="43.4603" lon="2.34489">
        <ele>675.44466536865</ele>
        <time>2020-01-16T13:15:29Z</time>
      </trkpt>
      <trkpt lat="43.46022" lon="2.34492">
        <ele>679.67951049283</ele>
        <time>2020-01-16T13:15:37Z</time>
      </trkpt>
      <trkpt lat="43.46015" lon="2.34498">
        <ele>681.30060749874</ele>
        <time>2020-01-16T13:15:42Z</time>
      </trkpt>
      <trkpt lat="43.46013" lon="2.34509">
        <ele>685.46462172642</ele>
        <time>2020-01-16T13:15:51Z</time>
      </trkpt>
      <trkpt lat="43.46019" lon="2.34518">
        <ele>687.14869345911</ele>
        <time>2020-01-16T13:16:03Z</time>
      </trkpt>
      <trkpt lat="43.46024" lon="2.34526">
        <ele>685.63926958386</ele>
        <time>2020-01-16T13:16:13Z</time>
      </trkpt>
      <trkpt lat="43.46032" lon="2.34531">
        <ele>685.15195770841</ele>
        <time>2020-01-16T13:16:25Z</time>
      </trkpt>
      <trkpt lat="43.46038" lon="2.34539">
        <ele>684.6647278294</ele>
        <time>2020-01-16T13:16:30Z</time>
      </trkpt>
      <trkpt lat="43.46044" lon="2.34547">
        <ele>681.79226285871</ele>
        <time>2020-01-16T13:16:40Z</time>
      </trkpt>
      <trkpt lat="43.46044" lon="2.34558">
        <ele>682.64114372246</ele>
        <time>2020-01-16T13:16:57Z</time>
      </trkpt>
      <trkpt lat="43.46044" lon="2.34568">
        <ele>683.54836288746</ele>
        <time>2020-01-16T13:17:08Z</time>
      </trkpt>
      <trkpt lat="43.46039" lon="2.34578">
        <ele>685.16580804624</ele>
        <time>2020-01-16T13:17:12Z</time>
      </trkpt>
      <trkpt lat="43.46036" lon="2.34588">
        <ele>684.77274273895</ele>
        <time>2020-01-16T13:17:37Z</time>
      </trkpt>
      <trkpt lat="43.46042" lon="2.34593">
        <ele>685.27350777667</ele>
        <time>2020-01-16T13:18:15Z</time>
      </trkpt>
      <trkpt lat="43.46051" lon="2.34595">
        <ele>684.44393633213</ele>
        <time>2020-01-16T13:18:41Z</time>
      </trkpt>
      <trkpt lat="43.46057" lon="2.34601">
        <ele>684.28277042974</ele>
        <time>2020-01-16T13:18:46Z</time>
      </trkpt>
      <trkpt lat="43.46065" lon="2.34608">
        <ele>685.76808690559</ele>
        <time>2020-01-16T13:18:51Z</time>
      </trkpt>
      <trkpt lat="43.4606" lon="2.34618">
        <ele>686.47436129209</ele>
        <time>2020-01-16T13:18:59Z</time>
      </trkpt>
      <trkpt lat="43.46069" lon="2.34619">
        <ele>686.15613427851</ele>
        <time>2020-01-16T13:19:20Z</time>
      </trkpt>
      <trkpt lat="43.46068" lon="2.34628">
        <ele>686.16219042987</ele>
        <time>2020-01-16T13:19:26Z</time>
      </trkpt>
      <trkpt lat="43.46066" lon="2.3464">
        <ele>685.98695844971</ele>
        <time>2020-01-16T13:19:30Z</time>
      </trkpt>
      <trkpt lat="43.4606" lon="2.34649">
        <ele>689.02571839746</ele>
        <time>2020-01-16T13:19:45Z</time>
      </trkpt>
      <trkpt lat="43.46058" lon="2.34661">
        <ele>686.70964507107</ele>
        <time>2020-01-16T13:19:55Z</time>
      </trkpt>
      <trkpt lat="43.46053" lon="2.34668">
        <ele>684.9296966074</ele>
        <time>2020-01-16T13:20:00Z</time>
      </trkpt>
      <trkpt lat="43.46046" lon="2.34675">
        <ele>683.63867503032</ele>
        <time>2020-01-16T13:20:07Z</time>
      </trkpt>
      <trkpt lat="43.4604" lon="2.34682">
        <ele>680.90132240951</ele>
        <time>2020-01-16T13:20:18Z</time>
      </trkpt>
      <trkpt lat="43.46032" lon="2.34688">
        <ele>676.13454259373</ele>
        <time>2020-01-16T13:20:26Z</time>
      </trkpt>
      <trkpt lat="43.46028" lon="2.34696">
        <ele>673.90112930816</ele>
        <time>2020-01-16T13:20:33Z</time>
      </trkpt>
      <trkpt lat="43.46024" lon="2.34707">
        <ele>674.59630210232</ele>
        <time>2020-01-16T13:20:40Z</time>
      </trkpt>
      <trkpt lat="43.46024" lon="2.34719">
        <ele>678.0622251993</ele>
        <time>2020-01-16T13:20:51Z</time>
      </trkpt>
      <trkpt lat="43.46023" lon="2.34731">
        <ele>680.70525003225</ele>
        <time>2020-01-16T13:21:00Z</time>
      </trkpt>
      <trkpt lat="43.46022" lon="2.34742">
        <ele>683.80406338163</ele>
        <time>2020-01-16T13:21:09Z</time>
      </trkpt>
      <trkpt lat="43.46016" lon="2.34747">
        <ele>684.71119680069</ele>
        <time>2020-01-16T13:21:16Z</time>
      </trkpt>
      <trkpt lat="43.46007" lon="2.34754">
        <ele>681.47978256922</ele>
        <time>2020-01-16T13:21:21Z</time>
      </trkpt>
      <trkpt lat="43.46001" lon="2.34761">
        <ele>680.97539102472</ele>
        <time>2020-01-16T13:21:26Z</time>
      </trkpt>
      <trkpt lat="43.45996" lon="2.34772">
        <ele>681.25519154221</ele>
        <time>2020-01-16T13:21:43Z</time>
      </trkpt>
      <trkpt lat="43.45998" lon="2.34784">
        <ele>678.05970526207</ele>
        <time>2020-01-16T13:21:54Z</time>
      </trkpt>
      <trkpt lat="43.46003" lon="2.34792">
        <ele>679.15254182369</ele>
        <time>2020-01-16T13:22:00Z</time>
      </trkpt>
      <trkpt lat="43.46005" lon="2.34803">
        <ele>678.38493634108</ele>
        <time>2020-01-16T13:22:13Z</time>
      </trkpt>
      <trkpt lat="43.46008" lon="2.34812">
        <ele>675.98471751995</ele>
        <time>2020-01-16T13:22:19Z</time>
      </trkpt>
      <trkpt lat="43.46011" lon="2.34824">
        <ele>674.41902668774</ele>
        <time>2020-01-16T13:22:26Z</time>
      </trkpt>
      <trkpt lat="43.46016" lon="2.34834">
        <ele>669.83691591676</ele>
        <time>2020-01-16T13:22:35Z</time>
      </trkpt>
      <trkpt lat="43.4602" lon="2.34844">
        <ele>668.08870084025</ele>
        <time>2020-01-16T13:22:45Z</time>
      </trkpt>
      <trkpt lat="43.46023" lon="2.34854">
        <ele>666.92239375319</ele>
        <time>2020-01-16T13:22:54Z</time>
      </trkpt>
      <trkpt lat="43.46024" lon="2.34864">
        <ele>666.11422248743</ele>
        <time>2020-01-16T13:22:59Z</time>
      </trkpt>
      <trkpt lat="43.46024" lon="2.34875">
        <ele>665.51596140489</ele>
        <time>2020-01-16T13:23:04Z</time>
      </trkpt>
      <trkpt lat="43.46023" lon="2.34887">
        <ele>664.69090885483</ele>
        <time>2020-01-16T13:23:12Z</time>
      </trkpt>
      <trkpt lat="43.46025" lon="2.34898">
        <ele>662.64169003349</ele>
        <time>2020-01-16T13:23:18Z</time>
      </trkpt>
      <trkpt lat="43.46026" lon="2.34908">
        <ele>662.64589822851</ele>
        <time>2020-01-16T13:23:23Z</time>
      </trkpt>
      <trkpt lat="43.46029" lon="2.34919">
        <ele>663.34831087664</ele>
        <time>2020-01-16T13:23:29Z</time>
      </trkpt>
      <trkpt lat="43.46029" lon="2.34931">
        <ele>667.50257808249</ele>
        <time>2020-01-16T13:23:37Z</time>
      </trkpt>
      <trkpt lat="43.46023" lon="2.34939">
        <ele>669.68123809528</ele>
        <time>2020-01-16T13:23:50Z</time>
      </trkpt>
      <trkpt lat="43.46017" lon="2.34947">
        <ele>670.74592145626</ele>
        <time>2020-01-16T13:23:57Z</time>
      </trkpt>
      <trkpt lat="43.4601" lon="2.34953">
        <ele>671.44973644707</ele>
        <time>2020-01-16T13:24:03Z</time>
      </trkpt>
      <trkpt lat="43.46005" lon="2.34962">
        <ele>671.50209522806</ele>
        <time>2020-01-16T13:24:09Z</time>
      </trkpt>
      <trkpt lat="43.46" lon="2.34972">
        <ele>670.55132698361</ele>
        <time>2020-01-16T13:24:18Z</time>
      </trkpt>
      <trkpt lat="43.45995" lon="2.34983">
        <ele>670.44967785291</ele>
        <time>2020-01-16T13:24:25Z</time>
      </trkpt>
      <trkpt lat="43.45995" lon="2.34994">
        <ele>672.43237369694</ele>
        <time>2020-01-16T13:24:31Z</time>
      </trkpt>
      <trkpt lat="43.46002" lon="2.35001">
        <ele>673.94060664717</ele>
        <time>2020-01-16T13:24:56Z</time>
      </trkpt>
      <trkpt lat="43.4601" lon="2.35007">
        <ele>672.08040270396</ele>
        <time>2020-01-16T13:25:01Z</time>
      </trkpt>
      <trkpt lat="43.46018" lon="2.35009">
        <ele>669.01873655338</ele>
        <time>2020-01-16T13:25:06Z</time>
      </trkpt>
      <trkpt lat="43.46026" lon="2.35011">
        <ele>668.15590320155</ele>
        <time>2020-01-16T13:25:11Z</time>
      </trkpt>
      <trkpt lat="43.46034" lon="2.35016">
        <ele>664.68756950833</ele>
        <time>2020-01-16T13:25:16Z</time>
      </trkpt>
      <trkpt lat="43.46042" lon="2.3502">
        <ele>660.38585028145</ele>
        <time>2020-01-16T13:25:25Z</time>
      </trkpt>
      <trkpt lat="43.46049" lon="2.35028">
        <ele>661.19357673544</ele>
        <time>2020-01-16T13:25:33Z</time>
      </trkpt>
      <trkpt lat="43.46055" lon="2.35034">
        <ele>661.87247922458</ele>
        <time>2020-01-16T13:25:39Z</time>
      </trkpt>
      <trkpt lat="43.46061" lon="2.35043">
        <ele>662.89160010219</ele>
        <time>2020-01-16T13:25:47Z</time>
      </trkpt>
      <trkpt lat="43.46062" lon="2.35054">
        <ele>663.32536897995</ele>
        <time>2020-01-16T13:25:54Z</time>
      </trkpt>
      <trkpt lat="43.46061" lon="2.35065">
        <ele>663.15934215114</ele>
        <time>2020-01-16T13:26:00Z</time>
      </trkpt>
      <trkpt lat="43.46057" lon="2.35074">
        <ele>662.58158423845</ele>
        <time>2020-01-16T13:26:05Z</time>
      </trkpt>
      <trkpt lat="43.46053" lon="2.35085">
        <ele>661.30206303392</ele>
        <time>2020-01-16T13:26:11Z</time>
      </trkpt>
      <trkpt lat="43.46054" lon="2.35097">
        <ele>661.90140655451</ele>
        <time>2020-01-16T13:26:22Z</time>
      </trkpt>
      <trkpt lat="43.4605" lon="2.35108">
        <ele>663.50679702219</ele>
        <time>2020-01-16T13:26:29Z</time>
      </trkpt>
      <trkpt lat="43.46046" lon="2.35118">
        <ele>662.77575636003</ele>
        <time>2020-01-16T13:26:34Z</time>
      </trkpt>
      <trkpt lat="43.46042" lon="2.35129">
        <ele>665.33649069443</ele>
        <time>2020-01-16T13:26:41Z</time>
      </trkpt>
      <trkpt lat="43.46042" lon="2.35141">
        <ele>667.72907953151</ele>
        <time>2020-01-16T13:26:49Z</time>
      </trkpt>
      <trkpt lat="43.46047" lon="2.35151">
        <ele>672.21217677463</ele>
        <time>2020-01-16T13:27:01Z</time>
      </trkpt>
      <trkpt lat="43.46055" lon="2.35155">
        <ele>672.49198535085</ele>
        <time>2020-01-16T13:27:11Z</time>
      </trkpt>
      <trkpt lat="43.46062" lon="2.35159">
        <ele>672.89949231781</ele>
        <time>2020-01-16T13:27:22Z</time>
      </trkpt>
      <trkpt lat="43.46069" lon="2.35162">
        <ele>672.5665594181</ele>
        <time>2020-01-16T13:27:26Z</time>
      </trkpt>
      <trkpt lat="43.46078" lon="2.35166">
        <ele>671.22667270433</ele>
        <time>2020-01-16T13:27:31Z</time>
      </trkpt>
      <trkpt lat="43.46082" lon="2.35175">
        <ele>670.26530181058</ele>
        <time>2020-01-16T13:27:38Z</time>
      </trkpt>
      <trkpt lat="43.46087" lon="2.35185">
        <ele>672.23583330214</ele>
        <time>2020-01-16T13:27:47Z</time>
      </trkpt>
      <trkpt lat="43.4609" lon="2.35196">
        <ele>672.28458431084</ele>
        <time>2020-01-16T13:27:53Z</time>
      </trkpt>
      <trkpt lat="43.46094" lon="2.35206">
        <ele>672.77834570222</ele>
        <time>2020-01-16T13:27:58Z</time>
      </trkpt>
      <trkpt lat="43.46098" lon="2.35216">
        <ele>674.78809577879</ele>
        <time>2020-01-16T13:28:03Z</time>
      </trkpt>
      <trkpt lat="43.46104" lon="2.35224">
        <ele>675.68980634119</ele>
        <time>2020-01-16T13:28:09Z</time>
      </trkpt>
      <trkpt lat="43.46108" lon="2.35234">
        <ele>676.38877559919</ele>
        <time>2020-01-16T13:28:15Z</time>
      </trkpt>
      <trkpt lat="43.46115" lon="2.35242">
        <ele>676.77337722015</ele>
        <time>2020-01-16T13:28:21Z</time>
      </trkpt>
      <trkpt lat="43.46121" lon="2.35252">
        <ele>674.57241537981</ele>
        <time>2020-01-16T13:28:27Z</time>
      </trkpt>
      <trkpt lat="43.46127" lon="2.35257">
        <ele>672.26061598398</ele>
        <time>2020-01-16T13:28:32Z</time>
      </trkpt>
      <trkpt lat="43.46132" lon="2.35268">
        <ele>669.1631094506</ele>
        <time>2020-01-16T13:28:39Z</time>
      </trkpt>
      <trkpt lat="43.46131" lon="2.3528">
        <ele>666.00475988258</ele>
        <time>2020-01-16T13:28:51Z</time>
      </trkpt>
      <trkpt lat="43.46126" lon="2.35289">
        <ele>665.61880939268</ele>
        <time>2020-01-16T13:28:57Z</time>
      </trkpt>
      <trkpt lat="43.46124" lon="2.35301">
        <ele>662.61310158577</ele>
        <time>2020-01-16T13:29:02Z</time>
      </trkpt>
      <trkpt lat="43.46123" lon="2.35311">
        <ele>660.74567223527</ele>
        <time>2020-01-16T13:29:08Z</time>
      </trkpt>
      <trkpt lat="43.46122" lon="2.35323">
        <ele>659.99851552304</ele>
        <time>2020-01-16T13:29:14Z</time>
      </trkpt>
      <trkpt lat="43.46119" lon="2.35333">
        <ele>658.97082340997</ele>
        <time>2020-01-16T13:29:19Z</time>
      </trkpt>
      <trkpt lat="43.46117" lon="2.35344">
        <ele>657.54166048393</ele>
        <time>2020-01-16T13:29:25Z</time>
      </trkpt>
      <trkpt lat="43.46115" lon="2.35354">
        <ele>658.85450250283</ele>
        <time>2020-01-16T13:29:32Z</time>
      </trkpt>
      <trkpt lat="43.46115" lon="2.35366">
        <ele>659.330155598</ele>
        <time>2020-01-16T13:29:39Z</time>
      </trkpt>
      <trkpt lat="43.46114" lon="2.35377">
        <ele>659.36517253425</ele>
        <time>2020-01-16T13:29:46Z</time>
      </trkpt>
      <trkpt lat="43.46112" lon="2.35388">
        <ele>658.33630010393</ele>
        <time>2020-01-16T13:29:52Z</time>
      </trkpt>
      <trkpt lat="43.46112" lon="2.35398">
        <ele>659.12959277909</ele>
        <time>2020-01-16T13:29:57Z</time>
      </trkpt>
      <trkpt lat="43.46111" lon="2.35409">
        <ele>659.31563852727</ele>
        <time>2020-01-16T13:30:03Z</time>
      </trkpt>
      <trkpt lat="43.4611" lon="2.3542">
        <ele>659.72396664135</ele>
        <time>2020-01-16T13:30:10Z</time>
      </trkpt>
      <trkpt lat="43.46108" lon="2.35431">
        <ele>660.78267300408</ele>
        <time>2020-01-16T13:30:16Z</time>
      </trkpt>
      <trkpt lat="43.46105" lon="2.35443">
        <ele>658.10285159387</ele>
        <time>2020-01-16T13:30:23Z</time>
      </trkpt>
      <trkpt lat="43.46102" lon="2.35454">
        <ele>656.27150651719</ele>
        <time>2020-01-16T13:30:32Z</time>
      </trkpt>
      <trkpt lat="43.461" lon="2.35465">
        <ele>654.9261302473</ele>
        <time>2020-01-16T13:30:39Z</time>
      </trkpt>
      <trkpt lat="43.46096" lon="2.35475">
        <ele>653.5501621915</ele>
        <time>2020-01-16T13:30:46Z</time>
      </trkpt>
      <trkpt lat="43.46092" lon="2.35485">
        <ele>650.20557114575</ele>
        <time>2020-01-16T13:30:54Z</time>
      </trkpt>
      <trkpt lat="43.46086" lon="2.35494">
        <ele>646.97551697493</ele>
        <time>2020-01-16T13:31:04Z</time>
      </trkpt>
      <trkpt lat="43.46081" lon="2.35503">
        <ele>642.21519787237</ele>
        <time>2020-01-16T13:31:14Z</time>
      </trkpt>
      <trkpt lat="43.46075" lon="2.35512">
        <ele>639.89860537089</ele>
        <time>2020-01-16T13:31:21Z</time>
      </trkpt>
      <trkpt lat="43.46068" lon="2.35519">
        <ele>636.6081550736</ele>
        <time>2020-01-16T13:31:31Z</time>
      </trkpt>
      <trkpt lat="43.46076" lon="2.35515">
        <ele>629.66880014446</ele>
        <time>2020-01-16T13:32:08Z</time>
      </trkpt>
      <trkpt lat="43.46082" lon="2.35506">
        <ele>629.10809217766</ele>
        <time>2020-01-16T13:32:19Z</time>
      </trkpt>
      <trkpt lat="43.46088" lon="2.35498">
        <ele>629.89682319108</ele>
        <time>2020-01-16T13:32:27Z</time>
      </trkpt>
      <trkpt lat="43.46095" lon="2.35489">
        <ele>628.87409298029</ele>
        <time>2020-01-16T13:32:37Z</time>
      </trkpt>
      <trkpt lat="43.46102" lon="2.35484">
        <ele>627.02638201974</ele>
        <time>2020-01-16T13:32:44Z</time>
      </trkpt>
      <trkpt lat="43.46108" lon="2.35493">
        <ele>625.14549721405</ele>
        <time>2020-01-16T13:32:51Z</time>
      </trkpt>
      <trkpt lat="43.46106" lon="2.35505">
        <ele>625.06606075447</ele>
        <time>2020-01-16T13:33:01Z</time>
      </trkpt>
      <trkpt lat="43.46104" lon="2.35515">
        <ele>626.12211118173</ele>
        <time>2020-01-16T13:33:10Z</time>
      </trkpt>
      <trkpt lat="43.461" lon="2.35526">
        <ele>625.21298796497</ele>
        <time>2020-01-16T13:33:18Z</time>
      </trkpt>
      <trkpt lat="43.46095" lon="2.35535">
        <ele>623.95878992509</ele>
        <time>2020-01-16T13:33:29Z</time>
      </trkpt>
      <trkpt lat="43.4609" lon="2.35545">
        <ele>623.29579622298</ele>
        <time>2020-01-16T13:33:36Z</time>
      </trkpt>
      <trkpt lat="43.46084" lon="2.35552">
        <ele>621.99995621666</ele>
        <time>2020-01-16T13:33:43Z</time>
      </trkpt>
      <trkpt lat="43.46077" lon="2.35559">
        <ele>622.54199793749</ele>
        <time>2020-01-16T13:33:51Z</time>
      </trkpt>
      <trkpt lat="43.46071" lon="2.35566">
        <ele>623.18271369766</ele>
        <time>2020-01-16T13:33:58Z</time>
      </trkpt>
      <trkpt lat="43.46063" lon="2.3557">
        <ele>621.0644337954</ele>
        <time>2020-01-16T13:34:08Z</time>
      </trkpt>
      <trkpt lat="43.46057" lon="2.35578">
        <ele>618.996002011</ele>
        <time>2020-01-16T13:34:16Z</time>
      </trkpt>
      <trkpt lat="43.46052" lon="2.35586">
        <ele>617.94524968043</ele>
        <time>2020-01-16T13:34:21Z</time>
      </trkpt>
      <trkpt lat="43.46045" lon="2.35592">
        <ele>617.25411219429</ele>
        <time>2020-01-16T13:34:27Z</time>
      </trkpt>
      <trkpt lat="43.46039" lon="2.35599">
        <ele>615.7789034443</ele>
        <time>2020-01-16T13:34:37Z</time>
      </trkpt>
      <trkpt lat="43.46033" lon="2.35608">
        <ele>613.9929722771</ele>
        <time>2020-01-16T13:34:48Z</time>
      </trkpt>
      <trkpt lat="43.46028" lon="2.35616">
        <ele>612.30088307243</ele>
        <time>2020-01-16T13:34:58Z</time>
      </trkpt>
      <trkpt lat="43.46024" lon="2.35628">
        <ele>612.21033082251</ele>
        <time>2020-01-16T13:35:18Z</time>
      </trkpt>
      <trkpt lat="43.4602" lon="2.35638">
        <ele>612.67076525372</ele>
        <time>2020-01-16T13:35:22Z</time>
      </trkpt>
      <trkpt lat="43.46017" lon="2.35648">
        <ele>611.68661592435</ele>
        <time>2020-01-16T13:35:28Z</time>
      </trkpt>
      <trkpt lat="43.46011" lon="2.35657">
        <ele>611.56026311871</ele>
        <time>2020-01-16T13:35:36Z</time>
      </trkpt>
      <trkpt lat="43.46005" lon="2.35666">
        <ele>610.76450955588</ele>
        <time>2020-01-16T13:35:46Z</time>
      </trkpt>
      <trkpt lat="43.46" lon="2.35675">
        <ele>607.82335752528</ele>
        <time>2020-01-16T13:35:55Z</time>
      </trkpt>
      <trkpt lat="43.45995" lon="2.35685">
        <ele>605.83335083164</ele>
        <time>2020-01-16T13:36:04Z</time>
      </trkpt>
      <trkpt lat="43.45991" lon="2.35695">
        <ele>605.08792523574</ele>
        <time>2020-01-16T13:36:15Z</time>
      </trkpt>
      <trkpt lat="43.45986" lon="2.35703">
        <ele>605.04509950802</ele>
        <time>2020-01-16T13:36:20Z</time>
      </trkpt>
      <trkpt lat="43.45983" lon="2.35713">
        <ele>605.24944353476</ele>
        <time>2020-01-16T13:36:26Z</time>
      </trkpt>
      <trkpt lat="43.4598" lon="2.35724">
        <ele>605.0697667012</ele>
        <time>2020-01-16T13:36:33Z</time>
      </trkpt>
      <trkpt lat="43.45977" lon="2.35735">
        <ele>607.68162196502</ele>
        <time>2020-01-16T13:36:44Z</time>
      </trkpt>
      <trkpt lat="43.45976" lon="2.35746">
        <ele>607.40536166169</ele>
        <time>2020-01-16T13:36:52Z</time>
      </trkpt>
      <trkpt lat="43.45974" lon="2.35758">
        <ele>609.79454842675</ele>
        <time>2020-01-16T13:36:59Z</time>
      </trkpt>
      <trkpt lat="43.45974" lon="2.35769">
        <ele>607.29946213961</ele>
        <time>2020-01-16T13:37:15Z</time>
      </trkpt>
      <trkpt lat="43.45972" lon="2.35781">
        <ele>607.42454542127</ele>
        <time>2020-01-16T13:37:26Z</time>
      </trkpt>
      <trkpt lat="43.45971" lon="2.35792">
        <ele>607.41658230964</ele>
        <time>2020-01-16T13:37:32Z</time>
      </trkpt>
      <trkpt lat="43.45966" lon="2.35803">
        <ele>607.12098289188</ele>
        <time>2020-01-16T13:37:46Z</time>
      </trkpt>
      <trkpt lat="43.45962" lon="2.35812">
        <ele>605.04173095804</ele>
        <time>2020-01-16T13:37:55Z</time>
      </trkpt>
      <trkpt lat="43.45956" lon="2.3582">
        <ele>602.00251285825</ele>
        <time>2020-01-16T13:38:03Z</time>
      </trkpt>
      <trkpt lat="43.45952" lon="2.3583">
        <ele>598.55145581439</ele>
        <time>2020-01-16T13:38:15Z</time>
      </trkpt>
      <trkpt lat="43.45944" lon="2.35834">
        <ele>593.9623125596</ele>
        <time>2020-01-16T13:38:35Z</time>
      </trkpt>
      <trkpt lat="43.45936" lon="2.35836">
        <ele>592.87742862012</ele>
        <time>2020-01-16T13:38:46Z</time>
      </trkpt>
      <trkpt lat="43.45928" lon="2.35836">
        <ele>591.15558274649</ele>
        <time>2020-01-16T13:38:50Z</time>
      </trkpt>
      <trkpt lat="43.45921" lon="2.35839">
        <ele>588.87574430835</ele>
        <time>2020-01-16T13:38:57Z</time>
      </trkpt>
      <trkpt lat="43.45912" lon="2.35841">
        <ele>588.97931617964</ele>
        <time>2020-01-16T13:39:02Z</time>
      </trkpt>
      <trkpt lat="43.45904" lon="2.35841">
        <ele>588.26163291931</ele>
        <time>2020-01-16T13:39:38Z</time>
      </trkpt>
      <trkpt lat="43.45897" lon="2.35848">
        <ele>590.22936264332</ele>
        <time>2020-01-16T13:39:43Z</time>
      </trkpt>
      <trkpt lat="43.45889" lon="2.35854">
        <ele>592.7330482658</ele>
        <time>2020-01-16T13:39:48Z</time>
      </trkpt>
      <trkpt lat="43.4588" lon="2.35855">
        <ele>595.89839043934</ele>
        <time>2020-01-16T13:39:57Z</time>
      </trkpt>
      <trkpt lat="43.45889" lon="2.35858">
        <ele>602.32397944108</ele>
        <time>2020-01-16T13:40:51Z</time>
      </trkpt>
      <trkpt lat="43.45896" lon="2.35859">
        <ele>609.08374834992</ele>
        <time>2020-01-16T13:41:02Z</time>
      </trkpt>
      <trkpt lat="43.45906" lon="2.35857">
        <ele>609.82087604143</ele>
        <time>2020-01-16T13:41:07Z</time>
      </trkpt>
      <trkpt lat="43.45908" lon="2.35868">
        <ele>615.77560966928</ele>
        <time>2020-01-16T13:41:19Z</time>
      </trkpt>
      <trkpt lat="43.45914" lon="2.35876">
        <ele>620.15567274485</ele>
        <time>2020-01-16T13:41:27Z</time>
      </trkpt>
      <trkpt lat="43.45922" lon="2.35879">
        <ele>621.04983686469</ele>
        <time>2020-01-16T13:41:33Z</time>
      </trkpt>
      <trkpt lat="43.45929" lon="2.35884">
        <ele>622.27796290535</ele>
        <time>2020-01-16T13:41:39Z</time>
      </trkpt>
      <trkpt lat="43.45933" lon="2.35895">
        <ele>624.45429098327</ele>
        <time>2020-01-16T13:41:45Z</time>
      </trkpt>
      <trkpt lat="43.45938" lon="2.35905">
        <ele>626.82076142728</ele>
        <time>2020-01-16T13:41:56Z</time>
      </trkpt>
      <trkpt lat="43.45943" lon="2.35915">
        <ele>626.88696877472</ele>
        <time>2020-01-16T13:42:15Z</time>
      </trkpt>
      <trkpt lat="43.45946" lon="2.35926">
        <ele>627.31748240255</ele>
        <time>2020-01-16T13:42:35Z</time>
      </trkpt>
      <trkpt lat="43.4595" lon="2.35937">
        <ele>628.76815609727</ele>
        <time>2020-01-16T13:42:45Z</time>
      </trkpt>
      <trkpt lat="43.45953" lon="2.35947">
        <ele>626.32140537445</ele>
        <time>2020-01-16T13:42:50Z</time>
      </trkpt>
      <trkpt lat="43.45958" lon="2.35956">
        <ele>625.91754254606</ele>
        <time>2020-01-16T13:42:57Z</time>
      </trkpt>
      <trkpt lat="43.45965" lon="2.35967">
        <ele>626.36018932983</ele>
        <time>2020-01-16T13:43:02Z</time>
      </trkpt>
      <trkpt lat="43.4597" lon="2.35977">
        <ele>625.47239429224</ele>
        <time>2020-01-16T13:43:07Z</time>
      </trkpt>
      <trkpt lat="43.45976" lon="2.35986">
        <ele>624.88464555144</ele>
        <time>2020-01-16T13:43:12Z</time>
      </trkpt>
      <trkpt lat="43.45981" lon="2.35996">
        <ele>623.22595793754</ele>
        <time>2020-01-16T13:43:17Z</time>
      </trkpt>
      <trkpt lat="43.45987" lon="2.36004">
        <ele>621.96270710696</ele>
        <time>2020-01-16T13:43:23Z</time>
      </trkpt>
      <trkpt lat="43.45986" lon="2.36015">
        <ele>617.52851068042</ele>
        <time>2020-01-16T13:43:28Z</time>
      </trkpt>
      <trkpt lat="43.45987" lon="2.36027">
        <ele>615.4235171061</ele>
        <time>2020-01-16T13:43:36Z</time>
      </trkpt>
      <trkpt lat="43.45986" lon="2.36039">
        <ele>613.49742317386</ele>
        <time>2020-01-16T13:43:45Z</time>
      </trkpt>
      <trkpt lat="43.45981" lon="2.36049">
        <ele>609.54014565144</ele>
        <time>2020-01-16T13:43:51Z</time>
      </trkpt>
      <trkpt lat="43.45983" lon="2.36061">
        <ele>607.50013020448</ele>
        <time>2020-01-16T13:44:02Z</time>
      </trkpt>
      <trkpt lat="43.45981" lon="2.36073">
        <ele>605.75023765583</ele>
        <time>2020-01-16T13:44:09Z</time>
      </trkpt>
      <trkpt lat="43.45982" lon="2.36085">
        <ele>606.23614108749</ele>
        <time>2020-01-16T13:44:16Z</time>
      </trkpt>
      <trkpt lat="43.45985" lon="2.36096">
        <ele>609.68835318275</ele>
        <time>2020-01-16T13:44:23Z</time>
      </trkpt>
      <trkpt lat="43.45984" lon="2.36107">
        <ele>612.93482503202</ele>
        <time>2020-01-16T13:44:30Z</time>
      </trkpt>
      <trkpt lat="43.45983" lon="2.36119">
        <ele>614.08232505713</ele>
        <time>2020-01-16T13:44:36Z</time>
      </trkpt>
      <trkpt lat="43.45985" lon="2.36131">
        <ele>614.73063728306</ele>
        <time>2020-01-16T13:44:44Z</time>
      </trkpt>
      <trkpt lat="43.45987" lon="2.36142">
        <ele>612.75800195802</ele>
        <time>2020-01-16T13:44:53Z</time>
      </trkpt>
      <trkpt lat="43.45983" lon="2.36152">
        <ele>609.49169836938</ele>
        <time>2020-01-16T13:45:02Z</time>
      </trkpt>
      <trkpt lat="43.45981" lon="2.36163">
        <ele>607.39601606317</ele>
        <time>2020-01-16T13:45:10Z</time>
      </trkpt>
      <trkpt lat="43.45978" lon="2.36172">
        <ele>604.98131629545</ele>
        <time>2020-01-16T13:45:15Z</time>
      </trkpt>
      <trkpt lat="43.45975" lon="2.36182">
        <ele>602.80548563134</ele>
        <time>2020-01-16T13:45:19Z</time>
      </trkpt>
      <trkpt lat="43.45976" lon="2.36194">
        <ele>599.38758154586</ele>
        <time>2020-01-16T13:45:30Z</time>
      </trkpt>
      <trkpt lat="43.45972" lon="2.36205">
        <ele>598.70646909717</ele>
        <time>2020-01-16T13:45:35Z</time>
      </trkpt>
      <trkpt lat="43.45969" lon="2.36215">
        <ele>599.53303483129</ele>
        <time>2020-01-16T13:45:41Z</time>
      </trkpt>
      <trkpt lat="43.45965" lon="2.36225">
        <ele>599.48179333191</ele>
        <time>2020-01-16T13:45:45Z</time>
      </trkpt>
      <trkpt lat="43.45963" lon="2.36237">
        <ele>596.62356077135</ele>
        <time>2020-01-16T13:46:02Z</time>
      </trkpt>
      <trkpt lat="43.45956" lon="2.36231">
        <ele>592.34434695542</ele>
        <time>2020-01-16T13:46:19Z</time>
      </trkpt>
      <trkpt lat="43.45948" lon="2.36227">
        <ele>593.10883619916</ele>
        <time>2020-01-16T13:46:26Z</time>
      </trkpt>
      <trkpt lat="43.45941" lon="2.36221">
        <ele>587.63504984789</ele>
        <time>2020-01-16T13:48:30Z</time>
      </trkpt>
      <trkpt lat="43.45947" lon="2.36223">
        <ele>584.63411873952</ele>
        <time>2020-01-16T13:50:23Z</time>
      </trkpt>
      <trkpt lat="43.45955" lon="2.36235">
        <ele>585.89713092707</ele>
        <time>2020-01-16T13:50:28Z</time>
      </trkpt>
      <trkpt lat="43.45956" lon="2.36247">
        <ele>582.06263893005</ele>
        <time>2020-01-16T13:50:36Z</time>
      </trkpt>
      <trkpt lat="43.45951" lon="2.36258">
        <ele>574.43179453071</ele>
        <time>2020-01-16T13:50:45Z</time>
      </trkpt>
      <trkpt lat="43.45955" lon="2.36268">
        <ele>570.36926973984</ele>
        <time>2020-01-16T13:50:52Z</time>
      </trkpt>
      <trkpt lat="43.45958" lon="2.36278">
        <ele>568.42622065172</ele>
        <time>2020-01-16T13:50:58Z</time>
      </trkpt>
      <trkpt lat="43.45961" lon="2.36288">
        <ele>567.83540996071</ele>
        <time>2020-01-16T13:51:04Z</time>
      </trkpt>
      <trkpt lat="43.45964" lon="2.36299">
        <ele>568.3167587705</ele>
        <time>2020-01-16T13:51:11Z</time>
      </trkpt>
      <trkpt lat="43.45962" lon="2.3631">
        <ele>568.44710585661</ele>
        <time>2020-01-16T13:51:19Z</time>
      </trkpt>
      <trkpt lat="43.45959" lon="2.36321">
        <ele>567.47298295237</ele>
        <time>2020-01-16T13:51:27Z</time>
      </trkpt>
      <trkpt lat="43.45961" lon="2.36331">
        <ele>565.7906722948</ele>
        <time>2020-01-16T13:51:35Z</time>
      </trkpt>
      <trkpt lat="43.45964" lon="2.36342">
        <ele>566.1571325399</ele>
        <time>2020-01-16T13:51:42Z</time>
      </trkpt>
      <trkpt lat="43.45963" lon="2.36354">
        <ele>567.49936060607</ele>
        <time>2020-01-16T13:51:48Z</time>
      </trkpt>
      <trkpt lat="43.4596" lon="2.36365">
        <ele>567.73440559581</ele>
        <time>2020-01-16T13:51:56Z</time>
      </trkpt>
      <trkpt lat="43.45958" lon="2.36375">
        <ele>567.40343267564</ele>
        <time>2020-01-16T13:52:03Z</time>
      </trkpt>
      <trkpt lat="43.45955" lon="2.36386">
        <ele>568.08388031274</ele>
        <time>2020-01-16T13:52:10Z</time>
      </trkpt>
      <trkpt lat="43.45953" lon="2.36398">
        <ele>568.82267215848</ele>
        <time>2020-01-16T13:52:17Z</time>
      </trkpt>
      <trkpt lat="43.45954" lon="2.3641">
        <ele>570.89279315062</ele>
        <time>2020-01-16T13:52:24Z</time>
      </trkpt>
      <trkpt lat="43.45953" lon="2.36421">
        <ele>571.261952742</ele>
        <time>2020-01-16T13:52:31Z</time>
      </trkpt>
      <trkpt lat="43.45951" lon="2.36433">
        <ele>570.09711687453</ele>
        <time>2020-01-16T13:52:40Z</time>
      </trkpt>
      <trkpt lat="43.45954" lon="2.36444">
        <ele>567.91796393692</ele>
        <time>2020-01-16T13:52:50Z</time>
      </trkpt>
      <trkpt lat="43.45954" lon="2.36456">
        <ele>565.30262164306</ele>
        <time>2020-01-16T13:52:59Z</time>
      </trkpt>
      <trkpt lat="43.45957" lon="2.36468">
        <ele>566.36320178956</ele>
        <time>2020-01-16T13:53:09Z</time>
      </trkpt>
      <trkpt lat="43.45963" lon="2.36475">
        <ele>568.98081871867</ele>
        <time>2020-01-16T13:53:16Z</time>
      </trkpt>
      <trkpt lat="43.45969" lon="2.3648">
        <ele>570.90589274</ele>
        <time>2020-01-16T13:53:20Z</time>
      </trkpt>
      <trkpt lat="43.45976" lon="2.36486">
        <ele>574.18814036902</ele>
        <time>2020-01-16T13:53:26Z</time>
      </trkpt>
      <trkpt lat="43.45983" lon="2.36493">
        <ele>577.28494367655</ele>
        <time>2020-01-16T13:53:31Z</time>
      </trkpt>
      <trkpt lat="43.45989" lon="2.36498">
        <ele>579.72586890776</ele>
        <time>2020-01-16T13:53:36Z</time>
      </trkpt>
      <trkpt lat="43.45997" lon="2.36504">
        <ele>582.29520762712</ele>
        <time>2020-01-16T13:53:42Z</time>
      </trkpt>
      <trkpt lat="43.46002" lon="2.36513">
        <ele>583.55426559877</ele>
        <time>2020-01-16T13:53:50Z</time>
      </trkpt>
      <trkpt lat="43.46009" lon="2.36519">
        <ele>583.95200647041</ele>
        <time>2020-01-16T13:53:56Z</time>
      </trkpt>
      <trkpt lat="43.46017" lon="2.36524">
        <ele>582.18025175389</ele>
        <time>2020-01-16T13:54:03Z</time>
      </trkpt>
      <trkpt lat="43.46025" lon="2.36529">
        <ele>582.02029405441</ele>
        <time>2020-01-16T13:54:09Z</time>
      </trkpt>
      <trkpt lat="43.46031" lon="2.36537">
        <ele>586.13714188989</ele>
        <time>2020-01-16T13:54:17Z</time>
      </trkpt>
      <trkpt lat="43.46034" lon="2.36548">
        <ele>590.64054900408</ele>
        <time>2020-01-16T13:54:26Z</time>
      </trkpt>
      <trkpt lat="43.46036" lon="2.3656">
        <ele>594.29222595785</ele>
        <time>2020-01-16T13:54:33Z</time>
      </trkpt>
      <trkpt lat="43.46034" lon="2.36572">
        <ele>593.54004928935</ele>
        <time>2020-01-16T13:54:38Z</time>
      </trkpt>
      <trkpt lat="43.46031" lon="2.36583">
        <ele>588.75737039745</ele>
        <time>2020-01-16T13:54:43Z</time>
      </trkpt>
      <trkpt lat="43.46028" lon="2.36593">
        <ele>585.14754836448</ele>
        <time>2020-01-16T13:54:52Z</time>
      </trkpt>
      <trkpt lat="43.46024" lon="2.36603">
        <ele>584.784014537</ele>
        <time>2020-01-16T13:54:59Z</time>
      </trkpt>
      <trkpt lat="43.46021" lon="2.36613">
        <ele>581.13936007209</ele>
        <time>2020-01-16T13:55:07Z</time>
      </trkpt>
      <trkpt lat="43.46018" lon="2.36625">
        <ele>575.34853306226</ele>
        <time>2020-01-16T13:55:22Z</time>
      </trkpt>
      <trkpt lat="43.46016" lon="2.36636">
        <ele>576.09398029651</ele>
        <time>2020-01-16T13:55:29Z</time>
      </trkpt>
      <trkpt lat="43.46016" lon="2.36647">
        <ele>575.10944860149</ele>
        <time>2020-01-16T13:55:40Z</time>
      </trkpt>
      <trkpt lat="43.46015" lon="2.36659">
        <ele>575.38305487577</ele>
        <time>2020-01-16T13:55:49Z</time>
      </trkpt>
      <trkpt lat="43.46017" lon="2.36671">
        <ele>573.75326863397</ele>
        <time>2020-01-16T13:55:57Z</time>
      </trkpt>
      <trkpt lat="43.46021" lon="2.36682">
        <ele>571.51416473649</ele>
        <time>2020-01-16T13:56:05Z</time>
      </trkpt>
      <trkpt lat="43.46025" lon="2.36691">
        <ele>571.42093432136</ele>
        <time>2020-01-16T13:56:12Z</time>
      </trkpt>
      <trkpt lat="43.46032" lon="2.36699">
        <ele>572.54115408845</ele>
        <time>2020-01-16T13:56:23Z</time>
      </trkpt>
      <trkpt lat="43.46038" lon="2.36706">
        <ele>573.19455508515</ele>
        <time>2020-01-16T13:56:29Z</time>
      </trkpt>
      <trkpt lat="43.46043" lon="2.36714">
        <ele>573.05579890124</ele>
        <time>2020-01-16T13:56:34Z</time>
      </trkpt>
      <trkpt lat="43.4605" lon="2.36721">
        <ele>571.90953132976</ele>
        <time>2020-01-16T13:56:40Z</time>
      </trkpt>
      <trkpt lat="43.46058" lon="2.36724">
        <ele>571.06893436424</ele>
        <time>2020-01-16T13:56:47Z</time>
      </trkpt>
      <trkpt lat="43.46066" lon="2.36722">
        <ele>570.36050180346</ele>
        <time>2020-01-16T13:56:57Z</time>
      </trkpt>
      <trkpt lat="43.46075" lon="2.36723">
        <ele>569.50952182058</ele>
        <time>2020-01-16T13:57:05Z</time>
      </trkpt>
      <trkpt lat="43.46083" lon="2.36722">
        <ele>568.7496185638</ele>
        <time>2020-01-16T13:57:12Z</time>
      </trkpt>
      <trkpt lat="43.46092" lon="2.3672">
        <ele>567.92526903749</ele>
        <time>2020-01-16T13:57:21Z</time>
      </trkpt>
      <trkpt lat="43.46099" lon="2.36726">
        <ele>566.51483218465</ele>
        <time>2020-01-16T13:57:26Z</time>
      </trkpt>
      <trkpt lat="43.46107" lon="2.36727">
        <ele>566.55623057391</ele>
        <time>2020-01-16T13:57:33Z</time>
      </trkpt>
      <trkpt lat="43.46115" lon="2.36727">
        <ele>567.13330609817</ele>
        <time>2020-01-16T13:57:39Z</time>
      </trkpt>
      <trkpt lat="43.46123" lon="2.36726">
        <ele>567.1558976518</ele>
        <time>2020-01-16T13:57:45Z</time>
      </trkpt>
      <trkpt lat="43.46132" lon="2.36726">
        <ele>567.08785262145</ele>
        <time>2020-01-16T13:57:52Z</time>
      </trkpt>
      <trkpt lat="43.4614" lon="2.36728">
        <ele>565.51290207915</ele>
        <time>2020-01-16T13:58:00Z</time>
      </trkpt>
      <trkpt lat="43.46148" lon="2.36732">
        <ele>564.80947756954</ele>
        <time>2020-01-16T13:58:07Z</time>
      </trkpt>
      <trkpt lat="43.46156" lon="2.36731">
        <ele>566.43024933338</ele>
        <time>2020-01-16T13:58:15Z</time>
      </trkpt>
      <trkpt lat="43.46165" lon="2.36729">
        <ele>566.20459919516</ele>
        <time>2020-01-16T13:58:24Z</time>
      </trkpt>
      <trkpt lat="43.46172" lon="2.36732">
        <ele>564.48855705652</ele>
        <time>2020-01-16T13:58:31Z</time>
      </trkpt>
      <trkpt lat="43.46181" lon="2.36732">
        <ele>563.71397867799</ele>
        <time>2020-01-16T13:58:38Z</time>
      </trkpt>
      <trkpt lat="43.4619" lon="2.36732">
        <ele>561.95843528491</ele>
        <time>2020-01-16T13:58:51Z</time>
      </trkpt>
      <trkpt lat="43.46196" lon="2.3674">
        <ele>562.15457927063</ele>
        <time>2020-01-16T13:58:57Z</time>
      </trkpt>
      <trkpt lat="43.46203" lon="2.36747">
        <ele>562.11193077359</ele>
        <time>2020-01-16T13:59:04Z</time>
      </trkpt>
      <trkpt lat="43.46205" lon="2.36736">
        <ele>562.69427658338</ele>
        <time>2020-01-16T13:59:17Z</time>
      </trkpt>
      <trkpt lat="43.46203" lon="2.36724">
        <ele>561.43442914635</ele>
        <time>2020-01-16T13:59:24Z</time>
      </trkpt>
      <trkpt lat="43.46199" lon="2.36715">
        <ele>558.56274959445</ele>
        <time>2020-01-16T13:59:32Z</time>
      </trkpt>
      <trkpt lat="43.46197" lon="2.36703">
        <ele>553.69291175529</ele>
        <time>2020-01-16T13:59:44Z</time>
      </trkpt>
      <trkpt lat="43.46199" lon="2.36692">
        <ele>552.38823966216</ele>
        <time>2020-01-16T13:59:53Z</time>
      </trkpt>
      <trkpt lat="43.46206" lon="2.36686">
        <ele>551.1094410494</ele>
        <time>2020-01-16T14:00:04Z</time>
      </trkpt>
      <trkpt lat="43.46215" lon="2.36688">
        <ele>550.3028485598</ele>
        <time>2020-01-16T14:00:13Z</time>
      </trkpt>
      <trkpt lat="43.46222" lon="2.3669">
        <ele>550.24347510003</ele>
        <time>2020-01-16T14:00:19Z</time>
      </trkpt>
      <trkpt lat="43.4623" lon="2.36691">
        <ele>550.48624696396</ele>
        <time>2020-01-16T14:00:25Z</time>
      </trkpt>
      <trkpt lat="43.46239" lon="2.36688">
        <ele>548.12998431642</ele>
        <time>2020-01-16T14:00:33Z</time>
      </trkpt>
      <trkpt lat="43.46247" lon="2.36684">
        <ele>546.95415895898</ele>
        <time>2020-01-16T14:00:40Z</time>
      </trkpt>
      <trkpt lat="43.46255" lon="2.3668">
        <ele>545.27623174526</ele>
        <time>2020-01-16T14:00:46Z</time>
      </trkpt>
      <trkpt lat="43.46263" lon="2.36677">
        <ele>544.1445772564</ele>
        <time>2020-01-16T14:00:53Z</time>
      </trkpt>
      <trkpt lat="43.46271" lon="2.3668">
        <ele>546.26822595578</ele>
        <time>2020-01-16T14:01:04Z</time>
      </trkpt>
      <trkpt lat="43.46274" lon="2.3669">
        <ele>547.41607044358</ele>
        <time>2020-01-16T14:01:11Z</time>
      </trkpt>
      <trkpt lat="43.46278" lon="2.367">
        <ele>548.32497821562</ele>
        <time>2020-01-16T14:01:19Z</time>
      </trkpt>
      <trkpt lat="43.46283" lon="2.36711">
        <ele>550.11478883959</ele>
        <time>2020-01-16T14:01:27Z</time>
      </trkpt>
      <trkpt lat="43.46287" lon="2.36721">
        <ele>552.61862909142</ele>
        <time>2020-01-16T14:01:34Z</time>
      </trkpt>
      <trkpt lat="43.46291" lon="2.36732">
        <ele>552.66254461091</ele>
        <time>2020-01-16T14:01:41Z</time>
      </trkpt>
      <trkpt lat="43.46299" lon="2.36738">
        <ele>550.93487334251</ele>
        <time>2020-01-16T14:01:47Z</time>
      </trkpt>
      <trkpt lat="43.46308" lon="2.36741">
        <ele>548.98701327574</ele>
        <time>2020-01-16T14:01:52Z</time>
      </trkpt>
      <trkpt lat="43.46317" lon="2.3674">
        <ele>547.11598675884</ele>
        <time>2020-01-16T14:01:59Z</time>
      </trkpt>
      <trkpt lat="43.4632" lon="2.36729">
        <ele>537.7838488128</ele>
        <time>2020-01-16T14:02:12Z</time>
      </trkpt>
      <trkpt lat="43.46318" lon="2.36717">
        <ele>536.34045314509</ele>
        <time>2020-01-16T14:02:18Z</time>
      </trkpt>
      <trkpt lat="43.46315" lon="2.36707">
        <ele>535.25502820406</ele>
        <time>2020-01-16T14:02:24Z</time>
      </trkpt>
      <trkpt lat="43.46312" lon="2.36696">
        <ele>531.55069661606</ele>
        <time>2020-01-16T14:02:33Z</time>
      </trkpt>
      <trkpt lat="43.46314" lon="2.36685">
        <ele>530.35046542063</ele>
        <time>2020-01-16T14:02:42Z</time>
      </trkpt>
      <trkpt lat="43.46314" lon="2.36673">
        <ele>528.40773289278</ele>
        <time>2020-01-16T14:02:49Z</time>
      </trkpt>
      <trkpt lat="43.46313" lon="2.36662">
        <ele>527.28121616226</ele>
        <time>2020-01-16T14:02:55Z</time>
      </trkpt>
      <trkpt lat="43.46312" lon="2.36651">
        <ele>526.69230306614</ele>
        <time>2020-01-16T14:03:04Z</time>
      </trkpt>
      <trkpt lat="43.46312" lon="2.36639">
        <ele>524.75433676969</ele>
        <time>2020-01-16T14:03:15Z</time>
      </trkpt>
      <trkpt lat="43.46314" lon="2.36627">
        <ele>524.97720520012</ele>
        <time>2020-01-16T14:03:25Z</time>
      </trkpt>
      <trkpt lat="43.46309" lon="2.36618">
        <ele>524.96820166148</ele>
        <time>2020-01-16T14:03:36Z</time>
      </trkpt>
      <trkpt lat="43.46304" lon="2.3661">
        <ele>522.52785249334</ele>
        <time>2020-01-16T14:03:46Z</time>
      </trkpt>
      <trkpt lat="43.463" lon="2.366">
        <ele>521.28754933085</ele>
        <time>2020-01-16T14:03:55Z</time>
      </trkpt>
      <trkpt lat="43.46292" lon="2.36595">
        <ele>521.05224435497</ele>
        <time>2020-01-16T14:04:01Z</time>
      </trkpt>
      <trkpt lat="43.46287" lon="2.36587">
        <ele>519.14281517453</ele>
        <time>2020-01-16T14:04:06Z</time>
      </trkpt>
      <trkpt lat="43.46283" lon="2.36576">
        <ele>517.99863878544</ele>
        <time>2020-01-16T14:04:11Z</time>
      </trkpt>
      <trkpt lat="43.46277" lon="2.36568">
        <ele>517.40439923108</ele>
        <time>2020-01-16T14:04:18Z</time>
      </trkpt>
      <trkpt lat="43.46269" lon="2.36562">
        <ele>518.18985403795</ele>
        <time>2020-01-16T14:04:29Z</time>
      </trkpt>
      <trkpt lat="43.46262" lon="2.36557">
        <ele>517.63523620646</ele>
        <time>2020-01-16T14:04:33Z</time>
      </trkpt>
      <trkpt lat="43.46255" lon="2.3655">
        <ele>518.08869420923</ele>
        <time>2020-01-16T14:04:40Z</time>
      </trkpt>
      <trkpt lat="43.46247" lon="2.36548">
        <ele>518.12184996624</ele>
        <time>2020-01-16T14:04:50Z</time>
      </trkpt>
      <trkpt lat="43.46239" lon="2.36545">
        <ele>517.54034410417</ele>
        <time>2020-01-16T14:04:58Z</time>
      </trkpt>
      <trkpt lat="43.46231" lon="2.36538">
        <ele>517.80953986105</ele>
        <time>2020-01-16T14:05:06Z</time>
      </trkpt>
      <trkpt lat="43.46223" lon="2.36535">
        <ele>519.15908550937</ele>
        <time>2020-01-16T14:05:15Z</time>
      </trkpt>
      <trkpt lat="43.46215" lon="2.36533">
        <ele>520.98311299458</ele>
        <time>2020-01-16T14:05:21Z</time>
      </trkpt>
      <trkpt lat="43.46207" lon="2.3653">
        <ele>521.56005067751</ele>
        <time>2020-01-16T14:05:29Z</time>
      </trkpt>
      <trkpt lat="43.462" lon="2.36523">
        <ele>520.18292036001</ele>
        <time>2020-01-16T14:05:33Z</time>
      </trkpt>
      <trkpt lat="43.46195" lon="2.36513">
        <ele>519.57804133743</ele>
        <time>2020-01-16T14:05:40Z</time>
      </trkpt>
      <trkpt lat="43.46187" lon="2.36509">
        <ele>519.4973130431</ele>
        <time>2020-01-16T14:05:49Z</time>
      </trkpt>
      <trkpt lat="43.46189" lon="2.36498">
        <ele>520.03342800774</ele>
        <time>2020-01-16T14:05:58Z</time>
      </trkpt>
      <trkpt lat="43.46196" lon="2.36493">
        <ele>518.41705894191</ele>
        <time>2020-01-16T14:06:10Z</time>
      </trkpt>
      <trkpt lat="43.46205" lon="2.36493">
        <ele>516.8459480023</ele>
        <time>2020-01-16T14:06:16Z</time>
      </trkpt>
      <trkpt lat="43.46213" lon="2.36485">
        <ele>514.95761355013</ele>
        <time>2020-01-16T14:06:21Z</time>
      </trkpt>
      <trkpt lat="43.46221" lon="2.36482">
        <ele>512.84582543932</ele>
        <time>2020-01-16T14:06:37Z</time>
      </trkpt>
      <trkpt lat="43.46228" lon="2.36476">
        <ele>512.8870152412</ele>
        <time>2020-01-16T14:06:47Z</time>
      </trkpt>
      <trkpt lat="43.46235" lon="2.3647">
        <ele>512.63085026294</ele>
        <time>2020-01-16T14:06:54Z</time>
      </trkpt>
      <trkpt lat="43.46243" lon="2.36466">
        <ele>511.74501511082</ele>
        <time>2020-01-16T14:07:02Z</time>
      </trkpt>
      <trkpt lat="43.46251" lon="2.36463">
        <ele>510.08736167941</ele>
        <time>2020-01-16T14:07:09Z</time>
      </trkpt>
      <trkpt lat="43.46258" lon="2.36455">
        <ele>510.64310728852</ele>
        <time>2020-01-16T14:07:16Z</time>
      </trkpt>
      <trkpt lat="43.46266" lon="2.3646">
        <ele>507.56822599191</ele>
        <time>2020-01-16T14:07:34Z</time>
      </trkpt>
      <trkpt lat="43.46271" lon="2.36469">
        <ele>504.91195017006</ele>
        <time>2020-01-16T14:07:43Z</time>
      </trkpt>
      <trkpt lat="43.46276" lon="2.36477">
        <ele>504.34679338802</ele>
        <time>2020-01-16T14:07:49Z</time>
      </trkpt>
      <trkpt lat="43.46284" lon="2.36483">
        <ele>502.91925939173</ele>
        <time>2020-01-16T14:07:54Z</time>
      </trkpt>
      <trkpt lat="43.46292" lon="2.36484">
        <ele>501.03952263482</ele>
        <time>2020-01-16T14:08:06Z</time>
      </trkpt>
      <trkpt lat="43.46301" lon="2.36484">
        <ele>501.21104892623</ele>
        <time>2020-01-16T14:08:12Z</time>
      </trkpt>
      <trkpt lat="43.46309" lon="2.36484">
        <ele>502.22487103287</ele>
        <time>2020-01-16T14:08:20Z</time>
      </trkpt>
      <trkpt lat="43.46318" lon="2.36482">
        <ele>502.13808059506</ele>
        <time>2020-01-16T14:08:38Z</time>
      </trkpt>
      <trkpt lat="43.46327" lon="2.36479">
        <ele>503.13230764773</ele>
        <time>2020-01-16T14:08:46Z</time>
      </trkpt>
      <trkpt lat="43.46335" lon="2.36476">
        <ele>504.20971581805</ele>
        <time>2020-01-16T14:08:53Z</time>
      </trkpt>
      <trkpt lat="43.46348" lon="2.36471">
        <ele>507.7401520405</ele>
        <time>2020-01-16T14:08:58Z</time>
      </trkpt>
      <trkpt lat="43.46356" lon="2.36471">
        <ele>508.08639004827</ele>
        <time>2020-01-16T14:09:02Z</time>
      </trkpt>
      <trkpt lat="43.46364" lon="2.36472">
        <ele>507.64563457575</ele>
        <time>2020-01-16T14:09:08Z</time>
      </trkpt>
      <trkpt lat="43.46372" lon="2.36473">
        <ele>509.42523942329</ele>
        <time>2020-01-16T14:09:14Z</time>
      </trkpt>
      <trkpt lat="43.4638" lon="2.36477">
        <ele>512.58905095793</ele>
        <time>2020-01-16T14:09:26Z</time>
      </trkpt>
      <trkpt lat="43.46387" lon="2.36482">
        <ele>514.02607285324</ele>
        <time>2020-01-16T14:09:32Z</time>
      </trkpt>
      <trkpt lat="43.46395" lon="2.36482">
        <ele>517.41581549868</ele>
        <time>2020-01-16T14:09:46Z</time>
      </trkpt>
      <trkpt lat="43.46405" lon="2.36485">
        <ele>518.47359636799</ele>
        <time>2020-01-16T14:09:51Z</time>
      </trkpt>
      <trkpt lat="43.46415" lon="2.36487">
        <ele>517.674564071</ele>
        <time>2020-01-16T14:09:55Z</time>
      </trkpt>
      <trkpt lat="43.46424" lon="2.36492">
        <ele>516.65156357642</ele>
        <time>2020-01-16T14:10:00Z</time>
      </trkpt>
      <trkpt lat="43.46431" lon="2.36499">
        <ele>513.60133939143</ele>
        <time>2020-01-16T14:10:09Z</time>
      </trkpt>
      <trkpt lat="43.46436" lon="2.36507">
        <ele>513.15204291511</ele>
        <time>2020-01-16T14:10:16Z</time>
      </trkpt>
      <trkpt lat="43.46438" lon="2.36518">
        <ele>515.25518697873</ele>
        <time>2020-01-16T14:10:29Z</time>
      </trkpt>
      <trkpt lat="43.46444" lon="2.36527">
        <ele>517.48881546501</ele>
        <time>2020-01-16T14:10:38Z</time>
      </trkpt>
      <trkpt lat="43.46448" lon="2.36538">
        <ele>519.3297426952</ele>
        <time>2020-01-16T14:10:49Z</time>
      </trkpt>
      <trkpt lat="43.46452" lon="2.36548">
        <ele>520.4892845694</ele>
        <time>2020-01-16T14:10:57Z</time>
      </trkpt>
      <trkpt lat="43.46458" lon="2.36557">
        <ele>519.51981415413</ele>
        <time>2020-01-16T14:11:05Z</time>
      </trkpt>
      <trkpt lat="43.46466" lon="2.36557">
        <ele>520.71475057025</ele>
        <time>2020-01-16T14:11:14Z</time>
      </trkpt>
      <trkpt lat="43.46473" lon="2.36551">
        <ele>518.29741003551</ele>
        <time>2020-01-16T14:11:21Z</time>
      </trkpt>
      <trkpt lat="43.46479" lon="2.36543">
        <ele>514.27027837746</ele>
        <time>2020-01-16T14:11:29Z</time>
      </trkpt>
      <trkpt lat="43.46487" lon="2.36536">
        <ele>512.5975300977</ele>
        <time>2020-01-16T14:11:46Z</time>
      </trkpt>
      <trkpt lat="43.46493" lon="2.3653">
        <ele>515.08495221939</ele>
        <time>2020-01-16T14:11:53Z</time>
      </trkpt>
      <trkpt lat="43.46498" lon="2.36521">
        <ele>515.53021969274</ele>
        <time>2020-01-16T14:11:57Z</time>
      </trkpt>
      <trkpt lat="43.46507" lon="2.36514">
        <ele>515.89977442753</ele>
        <time>2020-01-16T14:12:02Z</time>
      </trkpt>
      <trkpt lat="43.46516" lon="2.36517">
        <ele>515.40446532145</ele>
        <time>2020-01-16T14:12:11Z</time>
      </trkpt>
      <trkpt lat="43.46522" lon="2.36526">
        <ele>523.92362015136</ele>
        <time>2020-01-16T14:12:21Z</time>
      </trkpt>
      <trkpt lat="43.46528" lon="2.36534">
        <ele>527.19502519257</ele>
        <time>2020-01-16T14:12:31Z</time>
      </trkpt>
      <trkpt lat="43.46536" lon="2.3654">
        <ele>526.08567411453</ele>
        <time>2020-01-16T14:12:40Z</time>
      </trkpt>
      <trkpt lat="43.46544" lon="2.36541">
        <ele>526.34630445112</ele>
        <time>2020-01-16T14:12:51Z</time>
      </trkpt>
      <trkpt lat="43.46553" lon="2.36539">
        <ele>524.17329273093</ele>
        <time>2020-01-16T14:13:00Z</time>
      </trkpt>
      <trkpt lat="43.46561" lon="2.36539">
        <ele>522.45871569682</ele>
        <time>2020-01-16T14:13:07Z</time>
      </trkpt>
      <trkpt lat="43.4657" lon="2.36539">
        <ele>520.87925923988</ele>
        <time>2020-01-16T14:13:13Z</time>
      </trkpt>
      <trkpt lat="43.46579" lon="2.36538">
        <ele>520.16831179243</ele>
        <time>2020-01-16T14:13:18Z</time>
      </trkpt>
      <trkpt lat="43.46587" lon="2.36541">
        <ele>517.97109543625</ele>
        <time>2020-01-16T14:13:28Z</time>
      </trkpt>
      <trkpt lat="43.46596" lon="2.36542">
        <ele>518.83661411144</ele>
        <time>2020-01-16T14:13:37Z</time>
      </trkpt>
      <trkpt lat="43.46604" lon="2.36543">
        <ele>515.25041944534</ele>
        <time>2020-01-16T14:13:48Z</time>
      </trkpt>
      <trkpt lat="43.46612" lon="2.36538">
        <ele>514.11407404859</ele>
        <time>2020-01-16T14:13:57Z</time>
      </trkpt>
      <trkpt lat="43.46621" lon="2.36539">
        <ele>515.7433665283</ele>
        <time>2020-01-16T14:14:08Z</time>
      </trkpt>
      <trkpt lat="43.46629" lon="2.36537">
        <ele>516.93633760698</ele>
        <time>2020-01-16T14:14:21Z</time>
      </trkpt>
      <trkpt lat="43.46638" lon="2.36535">
        <ele>519.86948927958</ele>
        <time>2020-01-16T14:14:30Z</time>
      </trkpt>
      <trkpt lat="43.46647" lon="2.36534">
        <ele>517.8130846573</ele>
        <time>2020-01-16T14:14:40Z</time>
      </trkpt>
      <trkpt lat="43.46655" lon="2.36533">
        <ele>517.56995646935</ele>
        <time>2020-01-16T14:14:49Z</time>
      </trkpt>
      <trkpt lat="43.46663" lon="2.36532">
        <ele>516.95780913997</ele>
        <time>2020-01-16T14:15:00Z</time>
      </trkpt>
      <trkpt lat="43.46671" lon="2.36526">
        <ele>516.82235437632</ele>
        <time>2020-01-16T14:15:08Z</time>
      </trkpt>
      <trkpt lat="43.4668" lon="2.36524">
        <ele>518.75317810755</ele>
        <time>2020-01-16T14:15:18Z</time>
      </trkpt>
      <trkpt lat="43.46687" lon="2.36523">
        <ele>519.54914505687</ele>
        <time>2020-01-16T14:15:22Z</time>
      </trkpt>
      <trkpt lat="43.46695" lon="2.36521">
        <ele>519.65315941814</ele>
        <time>2020-01-16T14:15:27Z</time>
      </trkpt>
      <trkpt lat="43.46703" lon="2.3652">
        <ele>520.74781914242</ele>
        <time>2020-01-16T14:15:34Z</time>
      </trkpt>
      <trkpt lat="43.46711" lon="2.36514">
        <ele>518.12804445066</ele>
        <time>2020-01-16T14:15:42Z</time>
      </trkpt>
      <trkpt lat="43.46717" lon="2.36505">
        <ele>518.09118216019</ele>
        <time>2020-01-16T14:15:52Z</time>
      </trkpt>
      <trkpt lat="43.46722" lon="2.36495">
        <ele>518.86248670053</ele>
        <time>2020-01-16T14:16:02Z</time>
      </trkpt>
      <trkpt lat="43.46729" lon="2.3649">
        <ele>523.28192414716</ele>
        <time>2020-01-16T14:16:10Z</time>
      </trkpt>
      <trkpt lat="43.46736" lon="2.36482">
        <ele>526.80365385767</ele>
        <time>2020-01-16T14:16:18Z</time>
      </trkpt>
      <trkpt lat="43.46743" lon="2.36476">
        <ele>526.82899453398</ele>
        <time>2020-01-16T14:16:25Z</time>
      </trkpt>
      <trkpt lat="43.4675" lon="2.3647">
        <ele>525.16423525196</ele>
        <time>2020-01-16T14:16:33Z</time>
      </trkpt>
      <trkpt lat="43.46756" lon="2.36462">
        <ele>524.62049279083</ele>
        <time>2020-01-16T14:16:41Z</time>
      </trkpt>
      <trkpt lat="43.46762" lon="2.36455">
        <ele>523.37511496898</ele>
        <time>2020-01-16T14:16:51Z</time>
      </trkpt>
      <trkpt lat="43.4677" lon="2.36452">
        <ele>523.98549544718</ele>
        <time>2020-01-16T14:16:59Z</time>
      </trkpt>
      <trkpt lat="43.46778" lon="2.36448">
        <ele>528.00418267027</ele>
        <time>2020-01-16T14:17:05Z</time>
      </trkpt>
      <trkpt lat="43.46786" lon="2.36442">
        <ele>530.67675642855</ele>
        <time>2020-01-16T14:17:12Z</time>
      </trkpt>
      <trkpt lat="43.46789" lon="2.36431">
        <ele>532.99434484169</ele>
        <time>2020-01-16T14:17:30Z</time>
      </trkpt>
      <trkpt lat="43.46795" lon="2.36422">
        <ele>533.96478607599</ele>
        <time>2020-01-16T14:24:30Z</time>
      </trkpt>
      <trkpt lat="43.46789" lon="2.36429">
        <ele>535.27158018295</ele>
        <time>2020-01-16T14:25:37Z</time>
      </trkpt>
      <trkpt lat="43.46782" lon="2.36423">
        <ele>529.86947480682</ele>
        <time>2020-01-16T14:25:51Z</time>
      </trkpt>
      <trkpt lat="43.46773" lon="2.36427">
        <ele>528.87425152212</ele>
        <time>2020-01-16T14:25:58Z</time>
      </trkpt>
      <trkpt lat="43.46767" lon="2.36434">
        <ele>529.94274298474</ele>
        <time>2020-01-16T14:26:09Z</time>
      </trkpt>
      <trkpt lat="43.46763" lon="2.36427">
        <ele>528.72503609024</ele>
        <time>2020-01-16T14:26:24Z</time>
      </trkpt>
      <trkpt lat="43.46764" lon="2.36414">
        <ele>525.47911098041</ele>
        <time>2020-01-16T14:26:29Z</time>
      </trkpt>
      <trkpt lat="43.4677" lon="2.36405">
        <ele>528.73847061489</ele>
        <time>2020-01-16T14:26:37Z</time>
      </trkpt>
      <trkpt lat="43.46777" lon="2.36398">
        <ele>529.90679591987</ele>
        <time>2020-01-16T14:26:44Z</time>
      </trkpt>
      <trkpt lat="43.46783" lon="2.36391">
        <ele>532.69056161772</ele>
        <time>2020-01-16T14:26:52Z</time>
      </trkpt>
      <trkpt lat="43.4679" lon="2.36384">
        <ele>534.30095745251</ele>
        <time>2020-01-16T14:27:03Z</time>
      </trkpt>
      <trkpt lat="43.46795" lon="2.36374">
        <ele>536.68499739934</ele>
        <time>2020-01-16T14:27:12Z</time>
      </trkpt>
      <trkpt lat="43.46799" lon="2.36364">
        <ele>537.67728587147</ele>
        <time>2020-01-16T14:27:20Z</time>
      </trkpt>
      <trkpt lat="43.46803" lon="2.36354">
        <ele>538.67975751963</ele>
        <time>2020-01-16T14:27:30Z</time>
      </trkpt>
      <trkpt lat="43.46809" lon="2.36345">
        <ele>539.32370877452</ele>
        <time>2020-01-16T14:27:40Z</time>
      </trkpt>
      <trkpt lat="43.46812" lon="2.36334">
        <ele>538.67863567919</ele>
        <time>2020-01-16T14:27:47Z</time>
      </trkpt>
      <trkpt lat="43.46816" lon="2.36323">
        <ele>537.69661983754</ele>
        <time>2020-01-16T14:27:55Z</time>
      </trkpt>
      <trkpt lat="43.46819" lon="2.36313">
        <ele>540.2189674722</ele>
        <time>2020-01-16T14:28:04Z</time>
      </trkpt>
      <trkpt lat="43.46822" lon="2.36301">
        <ele>543.07958293892</ele>
        <time>2020-01-16T14:28:12Z</time>
      </trkpt>
      <trkpt lat="43.46827" lon="2.36293">
        <ele>545.92952455301</ele>
        <time>2020-01-16T14:28:19Z</time>
      </trkpt>
      <trkpt lat="43.46829" lon="2.36281">
        <ele>547.66400751937</ele>
        <time>2020-01-16T14:28:27Z</time>
      </trkpt>
      <trkpt lat="43.46831" lon="2.36269">
        <ele>550.46591503825</ele>
        <time>2020-01-16T14:28:37Z</time>
      </trkpt>
      <trkpt lat="43.46835" lon="2.36259">
        <ele>553.20052960981</ele>
        <time>2020-01-16T14:28:43Z</time>
      </trkpt>
      <trkpt lat="43.46841" lon="2.36252">
        <ele>554.34221684653</ele>
        <time>2020-01-16T14:28:49Z</time>
      </trkpt>
      <trkpt lat="43.46845" lon="2.36242">
        <ele>554.74223320093</ele>
        <time>2020-01-16T14:28:57Z</time>
      </trkpt>
      <trkpt lat="43.46846" lon="2.3623">
        <ele>555.73793473747</ele>
        <time>2020-01-16T14:29:06Z</time>
      </trkpt>
      <trkpt lat="43.46845" lon="2.36218">
        <ele>557.12650496699</ele>
        <time>2020-01-16T14:29:12Z</time>
      </trkpt>
      <trkpt lat="43.46851" lon="2.36209">
        <ele>559.64070609864</ele>
        <time>2020-01-16T14:29:22Z</time>
      </trkpt>
      <trkpt lat="43.46855" lon="2.36199">
        <ele>559.21255263407</ele>
        <time>2020-01-16T14:29:28Z</time>
      </trkpt>
      <trkpt lat="43.46859" lon="2.36189">
        <ele>560.00399308186</ele>
        <time>2020-01-16T14:29:34Z</time>
      </trkpt>
      <trkpt lat="43.46865" lon="2.3618">
        <ele>559.23467380088</ele>
        <time>2020-01-16T14:29:41Z</time>
      </trkpt>
      <trkpt lat="43.46871" lon="2.36172">
        <ele>561.77867393196</ele>
        <time>2020-01-16T14:29:57Z</time>
      </trkpt>
      <trkpt lat="43.46876" lon="2.36165">
        <ele>564.40042218566</ele>
        <time>2020-01-16T14:30:02Z</time>
      </trkpt>
      <trkpt lat="43.46882" lon="2.36156">
        <ele>566.61316212546</ele>
        <time>2020-01-16T14:30:07Z</time>
      </trkpt>
      <trkpt lat="43.46886" lon="2.36145">
        <ele>567.52411808725</ele>
        <time>2020-01-16T14:30:14Z</time>
      </trkpt>
      <trkpt lat="43.4689" lon="2.36136">
        <ele>564.51840674225</ele>
        <time>2020-01-16T14:30:21Z</time>
      </trkpt>
      <trkpt lat="43.46891" lon="2.36124">
        <ele>560.68858256657</ele>
        <time>2020-01-16T14:30:28Z</time>
      </trkpt>
      <trkpt lat="43.46889" lon="2.36113">
        <ele>557.63749146461</ele>
        <time>2020-01-16T14:30:34Z</time>
      </trkpt>
      <trkpt lat="43.4689" lon="2.36103">
        <ele>557.17216259986</ele>
        <time>2020-01-16T14:30:41Z</time>
      </trkpt>
      <trkpt lat="43.46889" lon="2.36091">
        <ele>558.90123094432</ele>
        <time>2020-01-16T14:30:47Z</time>
      </trkpt>
      <trkpt lat="43.4689" lon="2.3608">
        <ele>560.77405197266</ele>
        <time>2020-01-16T14:30:56Z</time>
      </trkpt>
      <trkpt lat="43.46889" lon="2.36067">
        <ele>562.01929955557</ele>
        <time>2020-01-16T14:31:06Z</time>
      </trkpt>
      <trkpt lat="43.46892" lon="2.36057">
        <ele>561.78187725972</ele>
        <time>2020-01-16T14:31:12Z</time>
      </trkpt>
      <trkpt lat="43.46895" lon="2.36045">
        <ele>563.00890654884</ele>
        <time>2020-01-16T14:31:24Z</time>
      </trkpt>
      <trkpt lat="43.46895" lon="2.36035">
        <ele>562.80963947717</ele>
        <time>2020-01-16T14:31:29Z</time>
      </trkpt>
      <trkpt lat="43.46897" lon="2.36025">
        <ele>563.99544570595</ele>
        <time>2020-01-16T14:31:35Z</time>
      </trkpt>
      <trkpt lat="43.469" lon="2.36013">
        <ele>565.0229920242</ele>
        <time>2020-01-16T14:31:42Z</time>
      </trkpt>
      <trkpt lat="43.46905" lon="2.36004">
        <ele>565.56715447363</ele>
        <time>2020-01-16T14:31:48Z</time>
      </trkpt>
      <trkpt lat="43.46905" lon="2.35994">
        <ele>565.11830283795</ele>
        <time>2020-01-16T14:31:54Z</time>
      </trkpt>
      <trkpt lat="43.46907" lon="2.35982">
        <ele>563.04456502572</ele>
        <time>2020-01-16T14:32:02Z</time>
      </trkpt>
      <trkpt lat="43.46913" lon="2.35974">
        <ele>565.0925567057</ele>
        <time>2020-01-16T14:32:08Z</time>
      </trkpt>
      <trkpt lat="43.46921" lon="2.35971">
        <ele>566.76333915815</ele>
        <time>2020-01-16T14:32:15Z</time>
      </trkpt>
      <trkpt lat="43.46932" lon="2.35982">
        <ele>568.22452243418</ele>
        <time>2020-01-16T14:32:20Z</time>
      </trkpt>
      <trkpt lat="43.46939" lon="2.3599">
        <ele>570.05043228157</ele>
        <time>2020-01-16T14:32:24Z</time>
      </trkpt>
      <trkpt lat="43.46945" lon="2.35998">
        <ele>570.84977190848</ele>
        <time>2020-01-16T14:32:30Z</time>
      </trkpt>
      <trkpt lat="43.46941" lon="2.36008">
        <ele>569.46723500825</ele>
        <time>2020-01-16T14:32:38Z</time>
      </trkpt>
      <trkpt lat="43.46944" lon="2.36019">
        <ele>566.77186202724</ele>
        <time>2020-01-16T14:32:49Z</time>
      </trkpt>
      <trkpt lat="43.46947" lon="2.3603">
        <ele>566.00025324058</ele>
        <time>2020-01-16T14:32:55Z</time>
      </trkpt>
      <trkpt lat="43.46947" lon="2.36042">
        <ele>562.93318598624</ele>
        <time>2020-01-16T14:33:03Z</time>
      </trkpt>
      <trkpt lat="43.46953" lon="2.36051">
        <ele>555.23447308131</ele>
        <time>2020-01-16T14:33:15Z</time>
      </trkpt>
      <trkpt lat="43.46961" lon="2.36057">
        <ele>549.66621936765</ele>
        <time>2020-01-16T14:33:24Z</time>
      </trkpt>
      <trkpt lat="43.46969" lon="2.36061">
        <ele>547.28326239251</ele>
        <time>2020-01-16T14:33:35Z</time>
      </trkpt>
      <trkpt lat="43.46975" lon="2.36069">
        <ele>551.44500463549</ele>
        <time>2020-01-16T14:33:42Z</time>
      </trkpt>
      <trkpt lat="43.46979" lon="2.3608">
        <ele>556.38598690927</ele>
        <time>2020-01-16T14:33:52Z</time>
      </trkpt>
      <trkpt lat="43.46978" lon="2.36091">
        <ele>557.30890013557</ele>
        <time>2020-01-16T14:34:01Z</time>
      </trkpt>
      <trkpt lat="43.46977" lon="2.36103">
        <ele>558.48926965799</ele>
        <time>2020-01-16T14:34:08Z</time>
      </trkpt>
      <trkpt lat="43.46974" lon="2.36113">
        <ele>557.43794511445</ele>
        <time>2020-01-16T14:34:16Z</time>
      </trkpt>
      <trkpt lat="43.46973" lon="2.36124">
        <ele>561.12891433015</ele>
        <time>2020-01-16T14:34:23Z</time>
      </trkpt>
      <trkpt lat="43.46971" lon="2.36136">
        <ele>569.27256841492</ele>
        <time>2020-01-16T14:34:30Z</time>
      </trkpt>
      <trkpt lat="43.46977" lon="2.36145">
        <ele>572.52507971134</ele>
        <time>2020-01-16T14:34:37Z</time>
      </trkpt>
      <trkpt lat="43.46983" lon="2.36154">
        <ele>569.80348973442</ele>
        <time>2020-01-16T14:34:48Z</time>
      </trkpt>
      <trkpt lat="43.46983" lon="2.36166">
        <ele>569.84296807647</ele>
        <time>2020-01-16T14:34:57Z</time>
      </trkpt>
      <trkpt lat="43.46982" lon="2.36177">
        <ele>572.16205218155</ele>
        <time>2020-01-16T14:35:07Z</time>
      </trkpt>
      <trkpt lat="43.46979" lon="2.36187">
        <ele>574.29390889779</ele>
        <time>2020-01-16T14:35:12Z</time>
      </trkpt>
      <trkpt lat="43.46977" lon="2.36199">
        <ele>575.90264039766</ele>
        <time>2020-01-16T14:35:19Z</time>
      </trkpt>
      <trkpt lat="43.46974" lon="2.36209">
        <ele>575.25839832425</ele>
        <time>2020-01-16T14:35:25Z</time>
      </trkpt>
      <trkpt lat="43.46972" lon="2.36221">
        <ele>575.57932118792</ele>
        <time>2020-01-16T14:35:35Z</time>
      </trkpt>
      <trkpt lat="43.46973" lon="2.36232">
        <ele>576.12598321587</ele>
        <time>2020-01-16T14:35:45Z</time>
      </trkpt>
      <trkpt lat="43.46971" lon="2.36244">
        <ele>576.09348212462</ele>
        <time>2020-01-16T14:35:55Z</time>
      </trkpt>
      <trkpt lat="43.4697" lon="2.36255">
        <ele>577.80131413043</ele>
        <time>2020-01-16T14:36:04Z</time>
      </trkpt>
      <trkpt lat="43.46971" lon="2.36266">
        <ele>578.60968077462</ele>
        <time>2020-01-16T14:36:11Z</time>
      </trkpt>
      <trkpt lat="43.46974" lon="2.36277">
        <ele>574.72640150785</ele>
        <time>2020-01-16T14:36:20Z</time>
      </trkpt>
      <trkpt lat="43.46977" lon="2.36288">
        <ele>572.21531580854</ele>
        <time>2020-01-16T14:36:30Z</time>
      </trkpt>
      <trkpt lat="43.4698" lon="2.363">
        <ele>576.73250125069</ele>
        <time>2020-01-16T14:36:53Z</time>
      </trkpt>
      <trkpt lat="43.46983" lon="2.3631">
        <ele>579.8267334234</ele>
        <time>2020-01-16T14:36:59Z</time>
      </trkpt>
      <trkpt lat="43.46987" lon="2.36319">
        <ele>579.29794073664</ele>
        <time>2020-01-16T14:37:05Z</time>
      </trkpt>
      <trkpt lat="43.46992" lon="2.36328">
        <ele>577.12300726958</ele>
        <time>2020-01-16T14:37:14Z</time>
      </trkpt>
      <trkpt lat="43.46997" lon="2.36338">
        <ele>576.86877655797</ele>
        <time>2020-01-16T14:37:23Z</time>
      </trkpt>
      <trkpt lat="43.47002" lon="2.36348">
        <ele>578.04395756032</ele>
        <time>2020-01-16T14:37:32Z</time>
      </trkpt>
      <trkpt lat="43.47006" lon="2.36358">
        <ele>579.28054480813</ele>
        <time>2020-01-16T14:37:40Z</time>
      </trkpt>
      <trkpt lat="43.4701" lon="2.36368">
        <ele>580.88703423552</ele>
        <time>2020-01-16T14:37:49Z</time>
      </trkpt>
      <trkpt lat="43.47013" lon="2.36379">
        <ele>580.91667185724</ele>
        <time>2020-01-16T14:37:58Z</time>
      </trkpt>
      <trkpt lat="43.47016" lon="2.36391">
        <ele>581.78759240452</ele>
        <time>2020-01-16T14:38:07Z</time>
      </trkpt>
      <trkpt lat="43.47025" lon="2.36389">
        <ele>582.04259193409</ele>
        <time>2020-01-16T14:40:12Z</time>
      </trkpt>
      <trkpt lat="43.47022" lon="2.36377">
        <ele>583.87450050656</ele>
        <time>2020-01-16T14:40:22Z</time>
      </trkpt>
      <trkpt lat="43.4702" lon="2.36366">
        <ele>582.57557953615</ele>
        <time>2020-01-16T14:40:29Z</time>
      </trkpt>
      <trkpt lat="43.4702" lon="2.36354">
        <ele>581.14130374976</ele>
        <time>2020-01-16T14:40:39Z</time>
      </trkpt>
      <trkpt lat="43.4702" lon="2.36342">
        <ele>580.2910786448</ele>
        <time>2020-01-16T14:40:48Z</time>
      </trkpt>
      <trkpt lat="43.47021" lon="2.3633">
        <ele>581.3060585577</ele>
        <time>2020-01-16T14:40:56Z</time>
      </trkpt>
      <trkpt lat="43.47025" lon="2.3632">
        <ele>579.84884895291</ele>
        <time>2020-01-16T14:41:05Z</time>
      </trkpt>
      <trkpt lat="43.47026" lon="2.36308">
        <ele>580.54754719697</ele>
        <time>2020-01-16T14:41:14Z</time>
      </trkpt>
      <trkpt lat="43.47031" lon="2.36297">
        <ele>582.06885320414</ele>
        <time>2020-01-16T14:41:22Z</time>
      </trkpt>
      <trkpt lat="43.47034" lon="2.36287">
        <ele>583.09884853568</ele>
        <time>2020-01-16T14:41:30Z</time>
      </trkpt>
      <trkpt lat="43.4704" lon="2.36278">
        <ele>584.79363600817</ele>
        <time>2020-01-16T14:41:39Z</time>
      </trkpt>
      <trkpt lat="43.47044" lon="2.36268">
        <ele>585.24081039149</ele>
        <time>2020-01-16T14:41:51Z</time>
      </trkpt>
      <trkpt lat="43.47048" lon="2.36259">
        <ele>586.26253485307</ele>
        <time>2020-01-16T14:41:59Z</time>
      </trkpt>
      <trkpt lat="43.47053" lon="2.36249">
        <ele>588.85793831479</ele>
        <time>2020-01-16T14:42:06Z</time>
      </trkpt>
      <trkpt lat="43.47058" lon="2.3624">
        <ele>589.6589900041</ele>
        <time>2020-01-16T14:42:12Z</time>
      </trkpt>
      <trkpt lat="43.47064" lon="2.36232">
        <ele>591.82018357515</ele>
        <time>2020-01-16T14:42:28Z</time>
      </trkpt>
      <trkpt lat="43.47068" lon="2.36222">
        <ele>593.27290927805</ele>
        <time>2020-01-16T14:42:36Z</time>
      </trkpt>
      <trkpt lat="43.47071" lon="2.36211">
        <ele>595.06977418903</ele>
        <time>2020-01-16T14:42:44Z</time>
      </trkpt>
      <trkpt lat="43.47071" lon="2.36201">
        <ele>595.68752177246</ele>
        <time>2020-01-16T14:42:50Z</time>
      </trkpt>
      <trkpt lat="43.47068" lon="2.36189">
        <ele>589.53661105409</ele>
        <time>2020-01-16T14:43:13Z</time>
      </trkpt>
      <trkpt lat="43.47065" lon="2.36178">
        <ele>587.24498039018</ele>
        <time>2020-01-16T14:43:21Z</time>
      </trkpt>
      <trkpt lat="43.47063" lon="2.36168">
        <ele>587.63664203603</ele>
        <time>2020-01-16T14:43:29Z</time>
      </trkpt>
      <trkpt lat="43.47065" lon="2.36156">
        <ele>588.13719743397</ele>
        <time>2020-01-16T14:43:37Z</time>
      </trkpt>
      <trkpt lat="43.47066" lon="2.36144">
        <ele>589.17302353494</ele>
        <time>2020-01-16T14:43:45Z</time>
      </trkpt>
      <trkpt lat="43.47067" lon="2.36133">
        <ele>589.41675312724</ele>
        <time>2020-01-16T14:43:52Z</time>
      </trkpt>
      <trkpt lat="43.4707" lon="2.36123">
        <ele>590.800246289</ele>
        <time>2020-01-16T14:44:01Z</time>
      </trkpt>
      <trkpt lat="43.47072" lon="2.36112">
        <ele>591.8551322408</ele>
        <time>2020-01-16T14:44:07Z</time>
      </trkpt>
      <trkpt lat="43.47076" lon="2.36101">
        <ele>592.98985646851</ele>
        <time>2020-01-16T14:44:15Z</time>
      </trkpt>
      <trkpt lat="43.47079" lon="2.3609">
        <ele>594.57149513252</ele>
        <time>2020-01-16T14:44:22Z</time>
      </trkpt>
      <trkpt lat="43.47079" lon="2.36079">
        <ele>593.81626018975</ele>
        <time>2020-01-16T14:44:29Z</time>
      </trkpt>
      <trkpt lat="43.47077" lon="2.36069">
        <ele>594.17175565194</ele>
        <time>2020-01-16T14:44:35Z</time>
      </trkpt>
      <trkpt lat="43.47079" lon="2.36058">
        <ele>596.47526205983</ele>
        <time>2020-01-16T14:44:43Z</time>
      </trkpt>
      <trkpt lat="43.47078" lon="2.36046">
        <ele>597.76084087696</ele>
        <time>2020-01-16T14:44:51Z</time>
      </trkpt>
      <trkpt lat="43.47076" lon="2.36036">
        <ele>601.0604787441</ele>
        <time>2020-01-16T14:45:01Z</time>
      </trkpt>
      <trkpt lat="43.47069" lon="2.36028">
        <ele>601.38196619693</ele>
        <time>2020-01-16T14:45:08Z</time>
      </trkpt>
      <trkpt lat="43.47063" lon="2.3602">
        <ele>600.81300848257</ele>
        <time>2020-01-16T14:45:14Z</time>
      </trkpt>
      <trkpt lat="43.4706" lon="2.3601">
        <ele>600.91557143349</ele>
        <time>2020-01-16T14:45:24Z</time>
      </trkpt>
      <trkpt lat="43.47051" lon="2.36007">
        <ele>603.4879866112</ele>
        <time>2020-01-16T14:45:30Z</time>
      </trkpt>
      <trkpt lat="43.47044" lon="2.36001">
        <ele>603.68373657484</ele>
        <time>2020-01-16T14:45:38Z</time>
      </trkpt>
      <trkpt lat="43.4704" lon="2.35991">
        <ele>602.61783104856</ele>
        <time>2020-01-16T14:45:45Z</time>
      </trkpt>
      <trkpt lat="43.47036" lon="2.3598">
        <ele>601.87173254415</ele>
        <time>2020-01-16T14:45:53Z</time>
      </trkpt>
      <trkpt lat="43.47035" lon="2.35968">
        <ele>601.47538916208</ele>
        <time>2020-01-16T14:46:00Z</time>
      </trkpt>
      <trkpt lat="43.47036" lon="2.35957">
        <ele>601.53667092696</ele>
        <time>2020-01-16T14:46:07Z</time>
      </trkpt>
      <trkpt lat="43.47034" lon="2.35946">
        <ele>602.80544822477</ele>
        <time>2020-01-16T14:46:14Z</time>
      </trkpt>
      <trkpt lat="43.47033" lon="2.35935">
        <ele>602.39051254001</ele>
        <time>2020-01-16T14:46:22Z</time>
      </trkpt>
      <trkpt lat="43.47035" lon="2.35923">
        <ele>602.5771490559</ele>
        <time>2020-01-16T14:46:29Z</time>
      </trkpt>
      <trkpt lat="43.47035" lon="2.35912">
        <ele>604.36069146078</ele>
        <time>2020-01-16T14:46:35Z</time>
      </trkpt>
      <trkpt lat="43.47035" lon="2.35899">
        <ele>607.23633880168</ele>
        <time>2020-01-16T14:46:45Z</time>
      </trkpt>
      <trkpt lat="43.47037" lon="2.35888">
        <ele>607.55145276152</ele>
        <time>2020-01-16T14:46:55Z</time>
      </trkpt>
      <trkpt lat="43.47039" lon="2.35878">
        <ele>610.87847166322</ele>
        <time>2020-01-16T14:47:02Z</time>
      </trkpt>
      <trkpt lat="43.47041" lon="2.35866">
        <ele>613.83502389397</ele>
        <time>2020-01-16T14:47:08Z</time>
      </trkpt>
      <trkpt lat="43.47046" lon="2.35856">
        <ele>616.3697740389</ele>
        <time>2020-01-16T14:47:14Z</time>
      </trkpt>
      <trkpt lat="43.4705" lon="2.35845">
        <ele>620.72278951388</ele>
        <time>2020-01-16T14:47:22Z</time>
      </trkpt>
      <trkpt lat="43.47052" lon="2.35836">
        <ele>623.35586908832</ele>
        <time>2020-01-16T14:47:33Z</time>
      </trkpt>
      <trkpt lat="43.47056" lon="2.35825">
        <ele>624.03968647402</ele>
        <time>2020-01-16T14:47:39Z</time>
      </trkpt>
      <trkpt lat="43.47058" lon="2.35814">
        <ele>624.84745223448</ele>
        <time>2020-01-16T14:47:45Z</time>
      </trkpt>
      <trkpt lat="43.47061" lon="2.35802">
        <ele>624.50524323713</ele>
        <time>2020-01-16T14:47:53Z</time>
      </trkpt>
      <trkpt lat="43.47062" lon="2.3579">
        <ele>623.41373610217</ele>
        <time>2020-01-16T14:48:02Z</time>
      </trkpt>
      <trkpt lat="43.47063" lon="2.3578">
        <ele>620.73218247015</ele>
        <time>2020-01-16T14:48:13Z</time>
      </trkpt>
      <trkpt lat="43.47066" lon="2.35768">
        <ele>619.93206490669</ele>
        <time>2020-01-16T14:48:20Z</time>
      </trkpt>
      <trkpt lat="43.47069" lon="2.35757">
        <ele>616.49428936001</ele>
        <time>2020-01-16T14:48:27Z</time>
      </trkpt>
      <trkpt lat="43.47069" lon="2.35745">
        <ele>616.99783312343</ele>
        <time>2020-01-16T14:48:35Z</time>
      </trkpt>
      <trkpt lat="43.47071" lon="2.35734">
        <ele>618.69971631374</ele>
        <time>2020-01-16T14:48:41Z</time>
      </trkpt>
      <trkpt lat="43.47074" lon="2.35722">
        <ele>620.05798200518</ele>
        <time>2020-01-16T14:48:48Z</time>
      </trkpt>
      <trkpt lat="43.47077" lon="2.35711">
        <ele>621.33999531344</ele>
        <time>2020-01-16T14:48:54Z</time>
      </trkpt>
      <trkpt lat="43.47081" lon="2.35701">
        <ele>622.78649968654</ele>
        <time>2020-01-16T14:49:01Z</time>
      </trkpt>
      <trkpt lat="43.47085" lon="2.3569">
        <ele>618.72337566968</ele>
        <time>2020-01-16T14:49:07Z</time>
      </trkpt>
      <trkpt lat="43.4709" lon="2.35681">
        <ele>615.01460522134</ele>
        <time>2020-01-16T14:49:14Z</time>
      </trkpt>
      <trkpt lat="43.47095" lon="2.35671">
        <ele>614.1882734634</ele>
        <time>2020-01-16T14:49:23Z</time>
      </trkpt>
      <trkpt lat="43.471" lon="2.35662">
        <ele>615.30077317357</ele>
        <time>2020-01-16T14:49:33Z</time>
      </trkpt>
      <trkpt lat="43.47107" lon="2.35656">
        <ele>613.31365799345</ele>
        <time>2020-01-16T14:49:42Z</time>
      </trkpt>
      <trkpt lat="43.47115" lon="2.3565">
        <ele>612.83323786035</ele>
        <time>2020-01-16T14:49:50Z</time>
      </trkpt>
      <trkpt lat="43.4712" lon="2.35643">
        <ele>613.43933281768</ele>
        <time>2020-01-16T14:49:56Z</time>
      </trkpt>
      <trkpt lat="43.47127" lon="2.35636">
        <ele>613.33070536517</ele>
        <time>2020-01-16T14:50:03Z</time>
      </trkpt>
      <trkpt lat="43.47132" lon="2.35627">
        <ele>612.74500289001</ele>
        <time>2020-01-16T14:50:13Z</time>
      </trkpt>
      <trkpt lat="43.47138" lon="2.35619">
        <ele>611.85370571073</ele>
        <time>2020-01-16T14:50:21Z</time>
      </trkpt>
      <trkpt lat="43.47145" lon="2.35612">
        <ele>612.82278515864</ele>
        <time>2020-01-16T14:50:28Z</time>
      </trkpt>
      <trkpt lat="43.4715" lon="2.35603">
        <ele>612.95459785126</ele>
        <time>2020-01-16T14:50:35Z</time>
      </trkpt>
      <trkpt lat="43.47156" lon="2.35594">
        <ele>613.51294288039</ele>
        <time>2020-01-16T14:50:43Z</time>
      </trkpt>
      <trkpt lat="43.47161" lon="2.35585">
        <ele>613.43311559968</ele>
        <time>2020-01-16T14:50:54Z</time>
      </trkpt>
      <trkpt lat="43.47164" lon="2.35574">
        <ele>612.4622786399</ele>
        <time>2020-01-16T14:51:01Z</time>
      </trkpt>
      <trkpt lat="43.47168" lon="2.35563">
        <ele>612.89712622203</ele>
        <time>2020-01-16T14:51:07Z</time>
      </trkpt>
      <trkpt lat="43.47173" lon="2.35554">
        <ele>615.72977526858</ele>
        <time>2020-01-16T14:51:14Z</time>
      </trkpt>
      <trkpt lat="43.47176" lon="2.35543">
        <ele>617.82179358881</ele>
        <time>2020-01-16T14:51:23Z</time>
      </trkpt>
      <trkpt lat="43.4718" lon="2.35533">
        <ele>618.35020522866</ele>
        <time>2020-01-16T14:51:43Z</time>
      </trkpt>
      <trkpt lat="43.47183" lon="2.35522">
        <ele>617.69572569337</ele>
        <time>2020-01-16T14:51:49Z</time>
      </trkpt>
      <trkpt lat="43.47188" lon="2.35513">
        <ele>616.40223523043</ele>
        <time>2020-01-16T14:51:58Z</time>
      </trkpt>
      <trkpt lat="43.4719" lon="2.35498">
        <ele>615.20599527191</ele>
        <time>2020-01-16T14:52:03Z</time>
      </trkpt>
      <trkpt lat="43.4719" lon="2.35486">
        <ele>614.22907008231</ele>
        <time>2020-01-16T14:52:09Z</time>
      </trkpt>
      <trkpt lat="43.47191" lon="2.35474">
        <ele>612.80789749697</ele>
        <time>2020-01-16T14:52:18Z</time>
      </trkpt>
      <trkpt lat="43.47188" lon="2.35463">
        <ele>614.9786322182</ele>
        <time>2020-01-16T14:52:30Z</time>
      </trkpt>
      <trkpt lat="43.47183" lon="2.35454">
        <ele>617.09803404845</ele>
        <time>2020-01-16T14:52:38Z</time>
      </trkpt>
      <trkpt lat="43.47178" lon="2.35444">
        <ele>617.76358325779</ele>
        <time>2020-01-16T14:52:44Z</time>
      </trkpt>
      <trkpt lat="43.47176" lon="2.35433">
        <ele>618.78965875041</ele>
        <time>2020-01-16T14:52:55Z</time>
      </trkpt>
      <trkpt lat="43.47176" lon="2.35421">
        <ele>619.03823301475</ele>
        <time>2020-01-16T14:53:02Z</time>
      </trkpt>
      <trkpt lat="43.47172" lon="2.35411">
        <ele>624.10792681854</ele>
        <time>2020-01-16T14:53:12Z</time>
      </trkpt>
      <trkpt lat="43.47167" lon="2.35401">
        <ele>625.92235627398</ele>
        <time>2020-01-16T14:53:20Z</time>
      </trkpt>
      <trkpt lat="43.47162" lon="2.35392">
        <ele>626.81268151477</ele>
        <time>2020-01-16T14:53:28Z</time>
      </trkpt>
      <trkpt lat="43.47157" lon="2.35382">
        <ele>624.83543210477</ele>
        <time>2020-01-16T14:53:38Z</time>
      </trkpt>
      <trkpt lat="43.47153" lon="2.35371">
        <ele>625.23660404701</ele>
        <time>2020-01-16T14:53:47Z</time>
      </trkpt>
      <trkpt lat="43.47152" lon="2.35361">
        <ele>625.69766457193</ele>
        <time>2020-01-16T14:53:56Z</time>
      </trkpt>
      <trkpt lat="43.4715" lon="2.3535">
        <ele>625.31316576619</ele>
        <time>2020-01-16T14:54:02Z</time>
      </trkpt>
      <trkpt lat="43.47147" lon="2.35339">
        <ele>627.70230724569</ele>
        <time>2020-01-16T14:54:10Z</time>
      </trkpt>
      <trkpt lat="43.47147" lon="2.35328">
        <ele>630.21724350937</ele>
        <time>2020-01-16T14:54:17Z</time>
      </trkpt>
      <trkpt lat="43.47146" lon="2.35316">
        <ele>629.88366040681</ele>
        <time>2020-01-16T14:54:25Z</time>
      </trkpt>
      <trkpt lat="43.47145" lon="2.35305">
        <ele>628.30595098156</ele>
        <time>2020-01-16T14:54:35Z</time>
      </trkpt>
      <trkpt lat="43.4714" lon="2.35298">
        <ele>628.47088577133</ele>
        <time>2020-01-16T14:54:42Z</time>
      </trkpt>
      <trkpt lat="43.47138" lon="2.35288">
        <ele>627.60992741678</ele>
        <time>2020-01-16T14:54:47Z</time>
      </trkpt>
      <trkpt lat="43.47136" lon="2.35277">
        <ele>626.53719866276</ele>
        <time>2020-01-16T14:54:53Z</time>
      </trkpt>
      <trkpt lat="43.47133" lon="2.35266">
        <ele>625.99977829214</ele>
        <time>2020-01-16T14:55:01Z</time>
      </trkpt>
      <trkpt lat="43.47131" lon="2.35255">
        <ele>624.36596611328</ele>
        <time>2020-01-16T14:55:10Z</time>
      </trkpt>
      <trkpt lat="43.47125" lon="2.35245">
        <ele>622.10660070274</ele>
        <time>2020-01-16T14:55:20Z</time>
      </trkpt>
      <trkpt lat="43.47119" lon="2.35237">
        <ele>622.86961555388</ele>
        <time>2020-01-16T14:55:27Z</time>
      </trkpt>
      <trkpt lat="43.47116" lon="2.35226">
        <ele>624.12401098479</ele>
        <time>2020-01-16T14:55:36Z</time>
      </trkpt>
      <trkpt lat="43.47112" lon="2.35215">
        <ele>622.85431662202</ele>
        <time>2020-01-16T14:55:43Z</time>
      </trkpt>
      <trkpt lat="43.47105" lon="2.35208">
        <ele>623.53196864016</ele>
        <time>2020-01-16T14:55:49Z</time>
      </trkpt>
      <trkpt lat="43.47101" lon="2.35199">
        <ele>625.65289791953</ele>
        <time>2020-01-16T14:55:57Z</time>
      </trkpt>
      <trkpt lat="43.47096" lon="2.3519">
        <ele>627.0952832317</ele>
        <time>2020-01-16T14:56:02Z</time>
      </trkpt>
      <trkpt lat="43.47092" lon="2.35179">
        <ele>630.84358604439</ele>
        <time>2020-01-16T14:56:12Z</time>
      </trkpt>
      <trkpt lat="43.47092" lon="2.35168">
        <ele>630.94309705682</ele>
        <time>2020-01-16T14:56:20Z</time>
      </trkpt>
      <trkpt lat="43.47088" lon="2.35158">
        <ele>630.41237105988</ele>
        <time>2020-01-16T14:56:30Z</time>
      </trkpt>
      <trkpt lat="43.47082" lon="2.35149">
        <ele>630.4372101957</ele>
        <time>2020-01-16T14:56:38Z</time>
      </trkpt>
      <trkpt lat="43.47076" lon="2.35141">
        <ele>631.21780604683</ele>
        <time>2020-01-16T14:56:45Z</time>
      </trkpt>
      <trkpt lat="43.47074" lon="2.3513">
        <ele>631.83043635357</ele>
        <time>2020-01-16T14:56:57Z</time>
      </trkpt>
      <trkpt lat="43.47073" lon="2.35119">
        <ele>631.44828930218</ele>
        <time>2020-01-16T14:57:05Z</time>
      </trkpt>
      <trkpt lat="43.47067" lon="2.35111">
        <ele>630.78217737749</ele>
        <time>2020-01-16T14:57:13Z</time>
      </trkpt>
      <trkpt lat="43.4706" lon="2.35104">
        <ele>632.36835486535</ele>
        <time>2020-01-16T14:57:20Z</time>
      </trkpt>
      <trkpt lat="43.47053" lon="2.35098">
        <ele>635.16939459182</ele>
        <time>2020-01-16T14:57:30Z</time>
      </trkpt>
      <trkpt lat="43.47046" lon="2.35091">
        <ele>638.67003615759</ele>
        <time>2020-01-16T14:57:36Z</time>
      </trkpt>
      <trkpt lat="43.47038" lon="2.35086">
        <ele>642.06249291729</ele>
        <time>2020-01-16T14:57:45Z</time>
      </trkpt>
      <trkpt lat="43.47035" lon="2.35074">
        <ele>645.67023575958</ele>
        <time>2020-01-16T14:57:53Z</time>
      </trkpt>
      <trkpt lat="43.47035" lon="2.35063">
        <ele>646.13947897404</ele>
        <time>2020-01-16T14:58:00Z</time>
      </trkpt>
      <trkpt lat="43.4703" lon="2.35053">
        <ele>649.03747889679</ele>
        <time>2020-01-16T14:58:16Z</time>
      </trkpt>
      <trkpt lat="43.47028" lon="2.35042">
        <ele>650.02535742149</ele>
        <time>2020-01-16T14:58:20Z</time>
      </trkpt>
      <trkpt lat="43.47026" lon="2.35031">
        <ele>649.87732612994</ele>
        <time>2020-01-16T14:58:25Z</time>
      </trkpt>
      <trkpt lat="43.47022" lon="2.35021">
        <ele>649.58111043181</ele>
        <time>2020-01-16T14:58:31Z</time>
      </trkpt>
      <trkpt lat="43.47019" lon="2.35009">
        <ele>649.84543320723</ele>
        <time>2020-01-16T14:58:40Z</time>
      </trkpt>
      <trkpt lat="43.47018" lon="2.34998">
        <ele>652.56882169563</ele>
        <time>2020-01-16T14:58:47Z</time>
      </trkpt>
      <trkpt lat="43.47018" lon="2.34987">
        <ele>656.29328849912</ele>
        <time>2020-01-16T14:58:56Z</time>
      </trkpt>
      <trkpt lat="43.47013" lon="2.34977">
        <ele>658.8408704102</ele>
        <time>2020-01-16T14:59:05Z</time>
      </trkpt>
      <trkpt lat="43.47013" lon="2.34965">
        <ele>661.11668781191</ele>
        <time>2020-01-16T14:59:13Z</time>
      </trkpt>
      <trkpt lat="43.47009" lon="2.34955">
        <ele>660.58344456833</ele>
        <time>2020-01-16T14:59:21Z</time>
      </trkpt>
      <trkpt lat="43.47006" lon="2.34945">
        <ele>659.82174103614</ele>
        <time>2020-01-16T14:59:27Z</time>
      </trkpt>
      <trkpt lat="43.47003" lon="2.34933">
        <ele>660.97366711311</ele>
        <time>2020-01-16T14:59:38Z</time>
      </trkpt>
      <trkpt lat="43.47" lon="2.34924">
        <ele>660.2106026113</ele>
        <time>2020-01-16T14:59:46Z</time>
      </trkpt>
      <trkpt lat="43.46997" lon="2.34913">
        <ele>660.32811046392</ele>
        <time>2020-01-16T14:59:54Z</time>
      </trkpt>
      <trkpt lat="43.46997" lon="2.34901">
        <ele>658.48928558826</ele>
        <time>2020-01-16T15:00:02Z</time>
      </trkpt>
      <trkpt lat="43.46996" lon="2.34889">
        <ele>657.04650749546</ele>
        <time>2020-01-16T15:00:10Z</time>
      </trkpt>
      <trkpt lat="43.46998" lon="2.34878">
        <ele>657.58741648216</ele>
        <time>2020-01-16T15:00:18Z</time>
      </trkpt>
      <trkpt lat="43.47" lon="2.34867">
        <ele>659.3874052763</ele>
        <time>2020-01-16T15:00:27Z</time>
      </trkpt>
      <trkpt lat="43.47001" lon="2.34855">
        <ele>660.65053729713</ele>
        <time>2020-01-16T15:00:36Z</time>
      </trkpt>
      <trkpt lat="43.47001" lon="2.34843">
        <ele>661.50011031982</ele>
        <time>2020-01-16T15:00:43Z</time>
      </trkpt>
      <trkpt lat="43.46995" lon="2.34835">
        <ele>659.31053747423</ele>
        <time>2020-01-16T15:00:54Z</time>
      </trkpt>
      <trkpt lat="43.46987" lon="2.34834">
        <ele>658.66149184015</ele>
        <time>2020-01-16T15:01:03Z</time>
      </trkpt>
      <trkpt lat="43.46979" lon="2.34829">
        <ele>658.96295998525</ele>
        <time>2020-01-16T15:01:12Z</time>
      </trkpt>
      <trkpt lat="43.46972" lon="2.34824">
        <ele>659.31023077201</ele>
        <time>2020-01-16T15:01:24Z</time>
      </trkpt>
      <trkpt lat="43.46963" lon="2.34821">
        <ele>662.03909517732</ele>
        <time>2020-01-16T15:01:30Z</time>
      </trkpt>
      <trkpt lat="43.46955" lon="2.34816">
        <ele>663.53496292885</ele>
        <time>2020-01-16T15:01:38Z</time>
      </trkpt>
      <trkpt lat="43.46948" lon="2.34812">
        <ele>664.90575482789</ele>
        <time>2020-01-16T15:01:44Z</time>
      </trkpt>
      <trkpt lat="43.46941" lon="2.34805">
        <ele>664.75654554367</ele>
        <time>2020-01-16T15:01:55Z</time>
      </trkpt>
      <trkpt lat="43.46935" lon="2.34797">
        <ele>666.11414776556</ele>
        <time>2020-01-16T15:02:05Z</time>
      </trkpt>
      <trkpt lat="43.46928" lon="2.34789">
        <ele>666.46017202176</ele>
        <time>2020-01-16T15:02:16Z</time>
      </trkpt>
      <trkpt lat="43.46922" lon="2.34783">
        <ele>667.60503666103</ele>
        <time>2020-01-16T15:02:27Z</time>
      </trkpt>
      <trkpt lat="43.46915" lon="2.34771">
        <ele>668.75339565612</ele>
        <time>2020-01-16T15:02:31Z</time>
      </trkpt>
      <trkpt lat="43.46907" lon="2.34765">
        <ele>669.42866246589</ele>
        <time>2020-01-16T15:02:40Z</time>
      </trkpt>
      <trkpt lat="43.46901" lon="2.34757">
        <ele>666.80054352432</ele>
        <time>2020-01-16T15:02:48Z</time>
      </trkpt>
      <trkpt lat="43.46895" lon="2.3475">
        <ele>665.78488972597</ele>
        <time>2020-01-16T15:02:57Z</time>
      </trkpt>
      <trkpt lat="43.4689" lon="2.3474">
        <ele>667.38052915037</ele>
        <time>2020-01-16T15:03:14Z</time>
      </trkpt>
      <trkpt lat="43.46885" lon="2.34731">
        <ele>668.28207689337</ele>
        <time>2020-01-16T15:03:20Z</time>
      </trkpt>
      <trkpt lat="43.4688" lon="2.34722">
        <ele>667.68952020444</ele>
        <time>2020-01-16T15:03:26Z</time>
      </trkpt>
      <trkpt lat="43.46873" lon="2.34714">
        <ele>669.74066081271</ele>
        <time>2020-01-16T15:03:35Z</time>
      </trkpt>
      <trkpt lat="43.46868" lon="2.34704">
        <ele>673.31178873125</ele>
        <time>2020-01-16T15:03:48Z</time>
      </trkpt>
      <trkpt lat="43.46861" lon="2.34699">
        <ele>675.66568190604</ele>
        <time>2020-01-16T15:04:00Z</time>
      </trkpt>
      <trkpt lat="43.46856" lon="2.3469">
        <ele>674.4433995774</ele>
        <time>2020-01-16T15:04:07Z</time>
      </trkpt>
      <trkpt lat="43.4685" lon="2.34682">
        <ele>671.46640693396</ele>
        <time>2020-01-16T15:04:14Z</time>
      </trkpt>
      <trkpt lat="43.46843" lon="2.34677">
        <ele>671.57132102177</ele>
        <time>2020-01-16T15:04:25Z</time>
      </trkpt>
      <trkpt lat="43.46834" lon="2.34673">
        <ele>674.55738105718</ele>
        <time>2020-01-16T15:04:32Z</time>
      </trkpt>
      <trkpt lat="43.46826" lon="2.34669">
        <ele>679.50015898887</ele>
        <time>2020-01-16T15:04:40Z</time>
      </trkpt>
      <trkpt lat="43.4682" lon="2.34662">
        <ele>682.41267399397</ele>
        <time>2020-01-16T15:04:50Z</time>
      </trkpt>
      <trkpt lat="43.46815" lon="2.34654">
        <ele>683.59314553346</ele>
        <time>2020-01-16T15:05:03Z</time>
      </trkpt>
      <trkpt lat="43.46809" lon="2.34645">
        <ele>687.0772344768</ele>
        <time>2020-01-16T15:05:15Z</time>
      </trkpt>
      <trkpt lat="43.46803" lon="2.34637">
        <ele>687.53894554824</ele>
        <time>2020-01-16T15:09:05Z</time>
      </trkpt>
      <trkpt lat="43.46797" lon="2.34627">
        <ele>688.21031226683</ele>
        <time>2020-01-16T15:09:13Z</time>
      </trkpt>
      <trkpt lat="43.46791" lon="2.34622">
        <ele>688.68524038512</ele>
        <time>2020-01-16T15:09:18Z</time>
      </trkpt>
      <trkpt lat="43.46783" lon="2.34616">
        <ele>688.93057096563</ele>
        <time>2020-01-16T15:09:25Z</time>
      </trkpt>
      <trkpt lat="43.46778" lon="2.34606">
        <ele>692.96372357663</ele>
        <time>2020-01-16T15:09:33Z</time>
      </trkpt>
      <trkpt lat="43.46774" lon="2.34599">
        <ele>694.4489309052</ele>
        <time>2020-01-16T15:09:43Z</time>
      </trkpt>
      <trkpt lat="43.46768" lon="2.34591">
        <ele>694.07042392995</ele>
        <time>2020-01-16T15:09:50Z</time>
      </trkpt>
      <trkpt lat="43.46763" lon="2.34583">
        <ele>692.10171859898</ele>
        <time>2020-01-16T15:09:56Z</time>
      </trkpt>
      <trkpt lat="43.46756" lon="2.34577">
        <ele>690.29910832271</ele>
        <time>2020-01-16T15:10:03Z</time>
      </trkpt>
      <trkpt lat="43.46749" lon="2.3457">
        <ele>688.53953068145</ele>
        <time>2020-01-16T15:10:09Z</time>
      </trkpt>
      <trkpt lat="43.46742" lon="2.34564">
        <ele>686.71518814284</ele>
        <time>2020-01-16T15:10:16Z</time>
      </trkpt>
      <trkpt lat="43.46735" lon="2.34559">
        <ele>684.47348207701</ele>
        <time>2020-01-16T15:10:23Z</time>
      </trkpt>
      <trkpt lat="43.46727" lon="2.3456">
        <ele>683.20519973245</ele>
        <time>2020-01-16T15:10:30Z</time>
      </trkpt>
      <trkpt lat="43.46719" lon="2.34562">
        <ele>684.83889927529</ele>
        <time>2020-01-16T15:10:37Z</time>
      </trkpt>
      <trkpt lat="43.4671" lon="2.3456">
        <ele>685.19628673233</ele>
        <time>2020-01-16T15:10:44Z</time>
      </trkpt>
      <trkpt lat="43.46703" lon="2.34556">
        <ele>683.38497920521</ele>
        <time>2020-01-16T15:10:51Z</time>
      </trkpt>
      <trkpt lat="43.46694" lon="2.34553">
        <ele>681.01369077992</ele>
        <time>2020-01-16T15:10:59Z</time>
      </trkpt>
      <trkpt lat="43.46686" lon="2.34551">
        <ele>680.66613235977</ele>
        <time>2020-01-16T15:11:07Z</time>
      </trkpt>
      <trkpt lat="43.46678" lon="2.34546">
        <ele>678.86050265748</ele>
        <time>2020-01-16T15:11:14Z</time>
      </trkpt>
      <trkpt lat="43.46671" lon="2.34539">
        <ele>677.34735843074</ele>
        <time>2020-01-16T15:11:22Z</time>
      </trkpt>
      <trkpt lat="43.46664" lon="2.34533">
        <ele>677.1126059778</ele>
        <time>2020-01-16T15:11:29Z</time>
      </trkpt>
      <trkpt lat="43.46658" lon="2.34527">
        <ele>675.24855880439</ele>
        <time>2020-01-16T15:11:35Z</time>
      </trkpt>
      <trkpt lat="43.46651" lon="2.34521">
        <ele>673.6724542072</ele>
        <time>2020-01-16T15:11:41Z</time>
      </trkpt>
      <trkpt lat="43.46644" lon="2.34515">
        <ele>674.94128884654</ele>
        <time>2020-01-16T15:11:47Z</time>
      </trkpt>
      <trkpt lat="43.46637" lon="2.34509">
        <ele>677.32709513139</ele>
        <time>2020-01-16T15:11:54Z</time>
      </trkpt>
      <trkpt lat="43.46633" lon="2.34498">
        <ele>677.38384633698</ele>
        <time>2020-01-16T15:12:03Z</time>
      </trkpt>
      <trkpt lat="43.46625" lon="2.34494">
        <ele>677.72039495409</ele>
        <time>2020-01-16T15:12:13Z</time>
      </trkpt>
      <trkpt lat="43.46618" lon="2.34493">
        <ele>678.98002827168</ele>
        <time>2020-01-16T15:12:18Z</time>
      </trkpt>
      <trkpt lat="43.4661" lon="2.34494">
        <ele>679.01190051716</ele>
        <time>2020-01-16T15:12:23Z</time>
      </trkpt>
      <trkpt lat="43.46601" lon="2.34494">
        <ele>681.5512368707</ele>
        <time>2020-01-16T15:12:30Z</time>
      </trkpt>
      <trkpt lat="43.46592" lon="2.34493">
        <ele>681.99826080725</ele>
        <time>2020-01-16T15:12:37Z</time>
      </trkpt>
      <trkpt lat="43.46584" lon="2.34492">
        <ele>682.21179613285</ele>
        <time>2020-01-16T15:12:45Z</time>
      </trkpt>
      <trkpt lat="43.46576" lon="2.34488">
        <ele>682.10741405841</ele>
        <time>2020-01-16T15:12:51Z</time>
      </trkpt>
      <trkpt lat="43.46569" lon="2.34484">
        <ele>682.35455788393</ele>
        <time>2020-01-16T15:12:59Z</time>
      </trkpt>
      <trkpt lat="43.46561" lon="2.34481">
        <ele>682.83207131084</ele>
        <time>2020-01-16T15:13:05Z</time>
      </trkpt>
      <trkpt lat="43.46553" lon="2.34478">
        <ele>683.77056322433</ele>
        <time>2020-01-16T15:13:12Z</time>
      </trkpt>
      <trkpt lat="43.46544" lon="2.34476">
        <ele>682.16556834616</ele>
        <time>2020-01-16T15:13:21Z</time>
      </trkpt>
      <trkpt lat="43.46536" lon="2.34475">
        <ele>679.44506302662</ele>
        <time>2020-01-16T15:13:29Z</time>
      </trkpt>
      <trkpt lat="43.4653" lon="2.34482">
        <ele>682.98016911093</ele>
        <time>2020-01-16T15:13:37Z</time>
      </trkpt>
      <trkpt lat="43.46524" lon="2.34491">
        <ele>683.27258282062</ele>
        <time>2020-01-16T15:13:44Z</time>
      </trkpt>
      <trkpt lat="43.4652" lon="2.345">
        <ele>684.89827258326</ele>
        <time>2020-01-16T15:13:50Z</time>
      </trkpt>
      <trkpt lat="43.46513" lon="2.34508">
        <ele>688.93004581518</ele>
        <time>2020-01-16T15:13:56Z</time>
      </trkpt>
      <trkpt lat="43.46505" lon="2.34512">
        <ele>692.00723725744</ele>
        <time>2020-01-16T15:14:03Z</time>
      </trkpt>
      <trkpt lat="43.46496" lon="2.3451">
        <ele>689.50148330629</ele>
        <time>2020-01-16T15:14:15Z</time>
      </trkpt>
      <trkpt lat="43.46488" lon="2.3451">
        <ele>688.57799418364</ele>
        <time>2020-01-16T15:14:24Z</time>
      </trkpt>
      <trkpt lat="43.46481" lon="2.34516">
        <ele>687.71445067227</ele>
        <time>2020-01-16T15:14:33Z</time>
      </trkpt>
      <trkpt lat="43.46473" lon="2.34519">
        <ele>688.59823367</ele>
        <time>2020-01-16T15:14:40Z</time>
      </trkpt>
      <trkpt lat="43.46465" lon="2.34523">
        <ele>689.04840404913</ele>
        <time>2020-01-16T15:14:46Z</time>
      </trkpt>
      <trkpt lat="43.46457" lon="2.34528">
        <ele>692.18059160467</ele>
        <time>2020-01-16T15:14:54Z</time>
      </trkpt>
      <trkpt lat="43.46448" lon="2.34529">
        <ele>694.92942630127</ele>
        <time>2020-01-16T15:15:00Z</time>
      </trkpt>
      <trkpt lat="43.46441" lon="2.34533">
        <ele>694.94138005096</ele>
        <time>2020-01-16T15:15:06Z</time>
      </trkpt>
      <trkpt lat="43.46432" lon="2.34535">
        <ele>692.54608991742</ele>
        <time>2020-01-16T15:15:16Z</time>
      </trkpt>
      <trkpt lat="43.46424" lon="2.3454">
        <ele>693.59676836338</ele>
        <time>2020-01-16T15:15:30Z</time>
      </trkpt>
      <trkpt lat="43.46417" lon="2.34545">
        <ele>692.44774563424</ele>
        <time>2020-01-16T15:15:40Z</time>
      </trkpt>
      <trkpt lat="43.46408" lon="2.34549">
        <ele>692.46979153249</ele>
        <time>2020-01-16T15:15:48Z</time>
      </trkpt>
      <trkpt lat="43.464" lon="2.3455">
        <ele>692.57615045551</ele>
        <time>2020-01-16T15:15:58Z</time>
      </trkpt>
      <trkpt lat="43.46393" lon="2.34555">
        <ele>692.7000715062</ele>
        <time>2020-01-16T15:16:05Z</time>
      </trkpt>
      <trkpt lat="43.46385" lon="2.34559">
        <ele>688.38134269696</ele>
        <time>2020-01-16T15:16:15Z</time>
      </trkpt>
      <trkpt lat="43.46377" lon="2.34561">
        <ele>688.99174673669</ele>
        <time>2020-01-16T15:16:22Z</time>
      </trkpt>
      <trkpt lat="43.46368" lon="2.34564">
        <ele>688.55589779187</ele>
        <time>2020-01-16T15:16:30Z</time>
      </trkpt>
      <trkpt lat="43.46359" lon="2.34566">
        <ele>689.55496370327</ele>
        <time>2020-01-16T15:16:37Z</time>
      </trkpt>
      <trkpt lat="43.46352" lon="2.3457">
        <ele>689.4849939011</ele>
        <time>2020-01-16T15:16:44Z</time>
      </trkpt>
      <trkpt lat="43.46345" lon="2.34574">
        <ele>689.83160911873</ele>
        <time>2020-01-16T15:16:50Z</time>
      </trkpt>
      <trkpt lat="43.46337" lon="2.3458">
        <ele>690.90976706333</ele>
        <time>2020-01-16T15:16:57Z</time>
      </trkpt>
      <trkpt lat="43.46329" lon="2.34582">
        <ele>694.28321276419</ele>
        <time>2020-01-16T15:20:18Z</time>
      </trkpt>
      <trkpt lat="43.46322" lon="2.34584">
        <ele>695.86767950747</ele>
        <time>2020-01-16T15:20:22Z</time>
      </trkpt>
      <trkpt lat="43.46313" lon="2.34588">
        <ele>697.48641111329</ele>
        <time>2020-01-16T15:20:28Z</time>
      </trkpt>
      <trkpt lat="43.46305" lon="2.34593">
        <ele>695.6289503146</ele>
        <time>2020-01-16T15:20:37Z</time>
      </trkpt>
      <trkpt lat="43.46297" lon="2.34598">
        <ele>694.91119462065</ele>
        <time>2020-01-16T15:20:44Z</time>
      </trkpt>
      <trkpt lat="43.4629" lon="2.34605">
        <ele>693.45262079127</ele>
        <time>2020-01-16T15:20:51Z</time>
      </trkpt>
      <trkpt lat="43.46282" lon="2.3461">
        <ele>692.19645607285</ele>
        <time>2020-01-16T15:20:58Z</time>
      </trkpt>
      <trkpt lat="43.46274" lon="2.34607">
        <ele>691.12607571762</ele>
        <time>2020-01-16T15:21:06Z</time>
      </trkpt>
      <trkpt lat="43.46266" lon="2.34612">
        <ele>695.64454768598</ele>
        <time>2020-01-16T15:21:13Z</time>
      </trkpt>
      <trkpt lat="43.46259" lon="2.34618">
        <ele>696.35256853234</ele>
        <time>2020-01-16T15:21:21Z</time>
      </trkpt>
      <trkpt lat="43.46255" lon="2.34627">
        <ele>696.22467512079</ele>
        <time>2020-01-16T15:21:26Z</time>
      </trkpt>
      <trkpt lat="43.46255" lon="2.34627">
        <ele>696.22467512079</ele>
        <time>2020-01-16T15:21:27Z</time>
      </trkpt>
      <trkpt lat="43.46253" lon="2.34633">
        <ele>696.84008038975</ele>
        <time>2020-01-16T15:21:31Z</time>
      </trkpt>
      <trkpt lat="43.4625" lon="2.34637">
        <ele>696.78439527564</ele>
        <time>2020-01-16T15:21:35Z</time>
      </trkpt>
      <trkpt lat="43.4625" lon="2.34637">
        <ele>696.78439527564</ele>
        <time>2020-01-16T15:21:35Z</time>
      </trkpt>
    </trkseg>
  </trk>
</gpx>